Observation data for Fort Chadbourne on 03/24/2019      Previous  Date  Next       Current Mesonet Observations  Soil Data  Daily Summary Page  Observations in Plain Language
KCH1 240500Z 17002KT 13/05 A3002 RMK A01 T01300047  RH  057%=      5-min Rain = 0
KCH1 240501Z 17003KT 13/05 A3002 RMK A01 T01300047  RH  057%=      5-min Rain = 0
KCH1 240502Z 19003KT 13/05 A3002 RMK A01 T01300048  RH  057%=      5-min Rain = 0
KCH1 240503Z 19003KT 13/05 A3002 RMK A01 T01300050  RH  059%=      5-min Rain = 0
KCH1 240504Z 19002KT 13/05 A3002 RMK A01 T01280051  RH  060%=      5-min Rain = 0
KCH1 240505Z 19002KT 13/05 A3002 RMK A01 T01260053  RH  061%=      5-min Rain = 0
KCH1 240506Z 19002KT 13/05 A3002 RMK A01 T01250053  RH  061%=      5-min Rain = 0
KCH1 240507Z 18002KT 13/05 A3002 RMK A01 T01250051  RH  061%=      5-min Rain = 0
KCH1 240508Z 18002KT 13/05 A3002 RMK A01 T01260049  RH  060%=      5-min Rain = 0
KCH1 240509Z 18002KT 13/05 A3002 RMK A01 T01270049  RH  059%=      5-min Rain = 0
KCH1 240510Z 18002KT 13/05 A3002 RMK A01 T01270048  RH  059%=      5-min Rain = 0
KCH1 240511Z 18002KT 13/05 A3002 RMK A01 T01280046  RH  057%=      5-min Rain = 0
KCH1 240512Z 17003KT 13/05 A3002 RMK A01 T01290046  RH  057%=      5-min Rain = 0
KCH1 240513Z 17003KT 13/05 A3002 RMK A01 T01290045  RH  057%=      5-min Rain = 0
KCH1 240514Z 17003KT 13/05 A3002 RMK A01 T01300045  RH  056%=      5-min Rain = 0
KCH1 240515Z 17003KT 13/05 A3002 RMK A01 T01310045  RH  056%=      5-min Rain = 0
KCH1 240516Z 16003KT 13/04 A3002 RMK A01 T01310044  RH  055%=      5-min Rain = 0
KCH1 240517Z 17002KT 13/04 A3002 RMK A01 T01320044  RH  055%=      5-min Rain = 0
KCH1 240518Z 18002KT 13/05 A3002 RMK A01 T01320045  RH  056%=      5-min Rain = 0
KCH1 240519Z 19003KT 13/05 A3002 RMK A01 T01310045  RH  056%=      5-min Rain = 0
KCH1 240520Z 18002KT 13/04 A3002 RMK A01 T01310044  RH  056%=      5-min Rain = 0
KCH1 240521Z 18003KT 13/04 A3002 RMK A01 T01310044  RH  056%=      5-min Rain = 0
KCH1 240522Z 18003KT 13/04 A3002 RMK A01 T01310044  RH  055%=      5-min Rain = 0
KCH1 240523Z 18004KT 13/04 A3002 RMK A01 T01310043  RH  055%=      5-min Rain = 0
KCH1 240524Z 18003KT 13/04 A3002 RMK A01 T01320043  RH  055%=      5-min Rain = 0
KCH1 240525Z 19003KT 13/04 A3002 RMK A01 T01320043  RH  055%=      5-min Rain = 0
KCH1 240526Z 18003KT 13/04 A3002 RMK A01 T01330043  RH  054%=      5-min Rain = 0
KCH1 240527Z 18003KT 13/04 A3002 RMK A01 T01330042  RH  054%=      5-min Rain = 0
KCH1 240528Z 19004KT 13/04 A3002 RMK A01 T01330042  RH  054%=      5-min Rain = 0
KCH1 240529Z 20004KT 13/04 A3002 RMK A01 T01340043  RH  054%=      5-min Rain = 0
KCH1 240530Z 21004KT 13/04 A3002 RMK A01 T01340044  RH  054%=      5-min Rain = 0
KCH1 240531Z 21005KT 14/04 A3002 RMK A01 T01350044  RH  054%=      5-min Rain = 0
KCH1 240532Z 22004KT 14/04 A3002 RMK A01 T01360043  RH  053%=      5-min Rain = 0
KCH1 240533Z 22004KT 14/04 A3002 RMK A01 T01370044  RH  053%=      5-min Rain = 0
KCH1 240534Z 21004KT 14/04 A3002 RMK A01 T01390044  RH  053%=      5-min Rain = 0
KCH1 240535Z 21004KT 14/05 A3002 RMK A01 T01390045  RH  053%=      5-min Rain = 0
KCH1 240536Z 22004KT 14/05 A3002 RMK A01 T01400045  RH  053%=      5-min Rain = 0
KCH1 240537Z 22005KT 14/05 A3002 RMK A01 T01390047  RH  054%=      5-min Rain = 0
KCH1 240538Z 22006KT 14/05 A3002 RMK A01 T01380048  RH  055%=      5-min Rain = 0
KCH1 240539Z 22005KT 14/05 A3002 RMK A01 T01390050  RH  055%=      5-min Rain = 0
KCH1 240540Z 23004KT 14/05 A3002 RMK A01 T01380050  RH  055%=      5-min Rain = 0
KCH1 240541Z 22004KT 14/05 A3002 RMK A01 T01380051  RH  056%=      5-min Rain = 0
KCH1 240542Z 23004KT 14/05 A3002 RMK A01 T01370051  RH  056%=      5-min Rain = 0
KCH1 240543Z 23004KT 14/05 A3002 RMK A01 T01360052  RH  057%=      5-min Rain = 0
KCH1 240544Z 22004KT 14/05 A3002 RMK A01 T01360052  RH  057%=      5-min Rain = 0
KCH1 240545Z 22004KT 14/05 A3002 RMK A01 T01350052  RH  057%=      5-min Rain = 0
KCH1 240546Z 20004KT 13/05 A3002 RMK A01 T01330053  RH  058%=      5-min Rain = 0
KCH1 240547Z 19003KT 13/05 A3002 RMK A01 T01270052  RH  060%=      5-min Rain = 0
KCH1 240548Z 14003KT 12/05 A3002 RMK A01 T01160050  RH  064%=      5-min Rain = 0
KCH1 240549Z 10004KT 10/05 A3002 RMK A01 T01040050  RH  069%=      5-min Rain = 0
KCH1 240550Z 10005KT 10/05 A3002 RMK A01 T00960050  RH  073%=      5-min Rain = 0
KCH1 240551Z 11005KT 09/05 A3002 RMK A01 T00930050  RH  075%=      5-min Rain = 0
KCH1 240552Z 12004KT 09/05 A3002 RMK A01 T00920051  RH  075%=      5-min Rain = 0
KCH1 240553Z 12004KT 09/05 A3002 RMK A01 T00930050  RH  074%=      5-min Rain = 0
KCH1 240554Z 12004KT 10/05 A3002 RMK A01 T00950050  RH  073%=      5-min Rain = 0
KCH1 240555Z 11003KT 10/05 A3002 RMK A01 T00960049  RH  073%=      5-min Rain = 0
KCH1 240556Z 12003KT 10/05 A3002 RMK A01 T00960049  RH  072%=      5-min Rain = 0
KCH1 240557Z 14003KT 10/05 A3002 RMK A01 T00960049  RH  072%=      5-min Rain = 0
KCH1 240558Z 15003KT 10/05 A3002 RMK A01 T00970050  RH  073%=      5-min Rain = 0
KCH1 240559Z 15003KT 10/05 A3002 RMK A01 T01000051  RH  072%=      5-min Rain = 0
KCH1 240600Z 16003KT 10/05 A3002 RMK A01 T01020051  RH  071%=      5-min Rain = 0
KCH1 240601Z 14002KT 10/05 A3002 RMK A01 T01040053  RH  070%=      5-min Rain = 0
KCH1 240602Z 15004KT 11/05 A3002 RMK A01 T01060054  RH  070%=      5-min Rain = 0
KCH1 240603Z 16004KT 11/06 A3002 RMK A01 T01100056  RH  069%=      5-min Rain = 0
KCH1 240604Z 15004KT 12/06 A3002 RMK A01 T01150056  RH  067%=      5-min Rain = 0
KCH1 240605Z 15004KT 12/06 A3002 RMK A01 T01170056  RH  066%=      5-min Rain = 0
KCH1 240606Z 16004KT 12/06 A3002 RMK A01 T01200056  RH  065%=      5-min Rain = 0
KCH1 240607Z 15004KT 12/06 A3002 RMK A01 T01210057  RH  065%=      5-min Rain = 0
KCH1 240608Z 17004KT 12/06 A3002 RMK A01 T01230057  RH  064%=      5-min Rain = 0
KCH1 240609Z 17003KT 13/06 A3002 RMK A01 T01250058  RH  064%=      5-min Rain = 0
KCH1 240610Z 17003KT 13/06 A3002 RMK A01 T01260059  RH  063%=      5-min Rain = 0
KCH1 240611Z 18003KT 13/06 A3002 RMK A01 T01270058  RH  063%=      5-min Rain = 0
KCH1 240612Z 18003KT 13/06 A3002 RMK A01 T01270059  RH  063%=      5-min Rain = 0
KCH1 240613Z 19002KT 13/06 A3002 RMK A01 T01280060  RH  063%=      5-min Rain = 0
KCH1 240614Z 18002KT 13/06 A3002 RMK A01 T01290060  RH  063%=      5-min Rain = 0
KCH1 240615Z 18002KT 13/06 A3002 RMK A01 T01300061  RH  063%=      5-min Rain = 0
KCH1 240616Z 17002KT 13/06 A3002 RMK A01 T01310060  RH  062%=      5-min Rain = 0
KCH1 240617Z 16002KT 13/06 A3002 RMK A01 T01310058  RH  061%=      5-min Rain = 0
KCH1 240618Z 14001KT 13/06 A3002 RMK A01 T01300057  RH  061%=      5-min Rain = 0
KCH1 240619Z 12001KT 13/06 A3002 RMK A01 T01270056  RH  062%=      5-min Rain = 0
KCH1 240620Z 11001KT 13/06 A3002 RMK A01 T01260056  RH  063%=      5-min Rain = 0
KCH1 240621Z 11001KT 13/06 A3002 RMK A01 T01260057  RH  063%=      5-min Rain = 0
KCH1 240622Z 10002KT 13/06 A3002 RMK A01 T01260058  RH  063%=      5-min Rain = 0
KCH1 240623Z 09002KT 12/06 A3002 RMK A01 T01240056  RH  063%=      5-min Rain = 0
KCH1 240624Z 09003KT 12/06 A3002 RMK A01 T01230056  RH  064%=      5-min Rain = 0
KCH1 240625Z 08003KT 12/06 A3002 RMK A01 T01220056  RH  064%=      5-min Rain = 0
KCH1 240626Z 07003KT 12/06 A3002 RMK A01 T01210056  RH  065%=      5-min Rain = 0
KCH1 240627Z 07004KT 12/06 A3002 RMK A01 T01190056  RH  065%=      5-min Rain = 0
KCH1 240628Z 08004KT 12/06 A3002 RMK A01 T01170055  RH  066%=      5-min Rain = 0
KCH1 240629Z 08004KT 11/06 A3002 RMK A01 T01140056  RH  067%=      5-min Rain = 0
KCH1 240630Z 07004KT 11/06 A3002 RMK A01 T01120056  RH  068%=      5-min Rain = 0
KCH1 240631Z 07004KT 11/06 A3002 RMK A01 T01100056  RH  069%=      5-min Rain = 0
KCH1 240632Z 07004KT 11/06 A3002 RMK A01 T01100056  RH  070%=      5-min Rain = 0
KCH1 240633Z 06004KT 11/06 A3002 RMK A01 T01100057  RH  070%=      5-min Rain = 0
KCH1 240634Z 07004KT 11/06 A3002 RMK A01 T01100057  RH  070%=      5-min Rain = 0
KCH1 240635Z 07003KT 11/06 A3002 RMK A01 T01110057  RH  070%=      5-min Rain = 0
KCH1 240636Z 08003KT 11/06 A3002 RMK A01 T01120057  RH  069%=      5-min Rain = 0
KCH1 240637Z 08003KT 11/06 A3002 RMK A01 T01130057  RH  069%=      5-min Rain = 0
KCH1 240638Z 09002KT 11/06 A3002 RMK A01 T01130058  RH  069%=      5-min Rain = 0
KCH1 240639Z 10002KT 11/06 A3002 RMK A01 T01130058  RH  069%=      5-min Rain = 0
KCH1 240640Z 11002KT 11/06 A3002 RMK A01 T01140060  RH  069%=      5-min Rain = 0
KCH1 240641Z 12003KT 12/06 A3002 RMK A01 T01150060  RH  069%=      5-min Rain = 0
KCH1 240642Z 12002KT 12/06 A3002 RMK A01 T01170061  RH  069%=      5-min Rain = 0
KCH1 240643Z 11002KT 12/06 A3002 RMK A01 T01180062  RH  068%=      5-min Rain = 0
KCH1 240644Z 10003KT 12/06 A3002 RMK A01 T01180062  RH  068%=      5-min Rain = 0
KCH1 240645Z 09002KT 12/06 A3002 RMK A01 T01180061  RH  068%=      5-min Rain = 0
KCH1 240646Z 08002KT 12/06 A3002 RMK A01 T01170061  RH  069%=      5-min Rain = 0
KCH1 240647Z 07003KT 12/06 A3002 RMK A01 T01160061  RH  069%=      5-min Rain = 0
KCH1 240648Z 08003KT 12/06 A3002 RMK A01 T01160061  RH  069%=      5-min Rain = 0
KCH1 240649Z 07003KT 12/06 A3002 RMK A01 T01160061  RH  069%=      5-min Rain = 0
KCH1 240650Z 07003KT 12/06 A3002 RMK A01 T01160062  RH  069%=      5-min Rain = 0
KCH1 240651Z 08003KT 12/06 A3002 RMK A01 T01170062  RH  069%=      5-min Rain = 0
KCH1 240652Z 08003KT 12/06 A3002 RMK A01 T01170063  RH  070%=      5-min Rain = 0
KCH1 240653Z 08003KT 12/06 A3002 RMK A01 T01180064  RH  070%=      5-min Rain = 0
KCH1 240654Z 08003KT 12/06 A3002 RMK A01 T01190064  RH  069%=      5-min Rain = 0
KCH1 240655Z 08003KT 12/06 A3002 RMK A01 T01190064  RH  069%=      5-min Rain = 0
KCH1 240656Z 07003KT 12/06 A3002 RMK A01 T01200064  RH  069%=      5-min Rain = 0
KCH1 240657Z 07004KT 12/06 A3002 RMK A01 T01200064  RH  069%=      5-min Rain = 0
KCH1 240658Z 06004KT 12/06 A3002 RMK A01 T01190064  RH  069%=      5-min Rain = 0
KCH1 240659Z 07003KT 12/06 A3002 RMK A01 T01180064  RH  069%=      5-min Rain = 0
KCH1 240700Z 07003KT 12/06 A3002 RMK A01 T01170064  RH  070%=      5-min Rain = 0
KCH1 240701Z 06004KT 12/06 A3002 RMK A01 T01170064  RH  070%=      5-min Rain = 0
KCH1 240702Z 06004KT 12/06 A3002 RMK A01 T01160064  RH  070%=      5-min Rain = 0
KCH1 240703Z 06004KT 11/06 A3002 RMK A01 T01140062  RH  070%=      5-min Rain = 0
KCH1 240704Z 06004KT 11/06 A3002 RMK A01 T01110063  RH  072%=      5-min Rain = 0
KCH1 240705Z 06004KT 11/06 A3002 RMK A01 T01110064  RH  073%=      5-min Rain = 0
KCH1 240706Z 06003KT 11/06 A3002 RMK A01 T01110064  RH  073%=      5-min Rain = 0
KCH1 240707Z 06003KT 11/06 A3002 RMK A01 T01110064  RH  073%=      5-min Rain = 0
KCH1 240708Z 06004KT 11/06 A3002 RMK A01 T01110064  RH  073%=      5-min Rain = 0
KCH1 240709Z 05003KT 11/06 A3002 RMK A01 T01100063  RH  073%=      5-min Rain = 0
KCH1 240710Z 07003KT 11/06 A3002 RMK A01 T01090064  RH  074%=      5-min Rain = 0
KCH1 240711Z 07002KT 11/07 A3002 RMK A01 T01090065  RH  074%=      5-min Rain = 0
KCH1 240712Z 07002KT 11/07 A3002 RMK A01 T01100066  RH  074%=      5-min Rain = 0
KCH1 240713Z 07002KT 11/07 A3002 RMK A01 T01120067  RH  074%=      5-min Rain = 0
KCH1 240714Z 07002KT 11/07 A3002 RMK A01 T01130067  RH  073%=      5-min Rain = 0
KCH1 240715Z 08003KT 11/07 A3002 RMK A01 T01130068  RH  074%=      5-min Rain = 0
KCH1 240716Z 07003KT 11/07 A3002 RMK A01 T01120068  RH  074%=      5-min Rain = 0
KCH1 240717Z 08002KT 11/07 A3002 RMK A01 T01120069  RH  075%=      5-min Rain = 0
KCH1 240718Z 09003KT 11/07 A3002 RMK A01 T01130071  RH  075%=      5-min Rain = 0
KCH1 240719Z 07002KT 12/07 A3002 RMK A01 T01150073  RH  075%=      5-min Rain = 0
KCH1 240720Z 09002KT 12/07 A3002 RMK A01 T01160071  RH  074%=      5-min Rain = 0
KCH1 240721Z 10002KT 12/07 A3002 RMK A01 T01160070  RH  073%=      5-min Rain = 0
KCH1 240722Z 10003KT 12/07 A3002 RMK A01 T01160072  RH  074%=      5-min Rain = 0
KCH1 240723Z 10002KT 12/07 A3002 RMK A01 T01150072  RH  075%=      5-min Rain = 0
KCH1 240724Z 08003KT 12/07 A3002 RMK A01 T01150073  RH  075%=      5-min Rain = 0
KCH1 240725Z 09003KT 11/07 A3002 RMK A01 T01140072  RH  075%=      5-min Rain = 0
KCH1 240726Z 11002KT 11/07 A3002 RMK A01 T01140073  RH  076%=      5-min Rain = 0
KCH1 240727Z 11002KT 12/08 A3002 RMK A01 T01150076  RH  077%=      5-min Rain = 0
KCH1 240728Z 12002KT 12/07 A3002 RMK A01 T01150072  RH  075%=      5-min Rain = 0
KCH1 240729Z 12002KT 11/08 A3002 RMK A01 T01140075  RH  077%=      5-min Rain = 0
KCH1 240730Z 12002KT 12/08 A3002 RMK A01 T01150080  RH  079%=      5-min Rain = 0
KCH1 240731Z 11001KT 12/08 A3002 RMK A01 T01170080  RH  078%=      5-min Rain = 0
KCH1 240732Z 12002KT 12/08 A3002 RMK A01 T01180079  RH  077%=      5-min Rain = 0
KCH1 240733Z 13002KT 12/08 A3002 RMK A01 T01180078  RH  077%=      5-min Rain = 0
KCH1 240734Z 14002KT 12/08 A3002 RMK A01 T01180082  RH  078%=      5-min Rain = 0
KCH1 240735Z 13002KT 12/08 A3002 RMK A01 T01200084  RH  079%=      5-min Rain = 0
KCH1 240736Z 12002KT 12/08 A3002 RMK A01 T01200083  RH  078%=      5-min Rain = 0
KCH1 240737Z 11002KT 12/08 A3002 RMK A01 T01200082  RH  077%=      5-min Rain = 0
KCH1 240738Z 10002KT 12/08 A3002 RMK A01 T01200082  RH  078%=      5-min Rain = 0
KCH1 240739Z 12002KT 12/08 A3002 RMK A01 T01200084  RH  079%=      5-min Rain = 0
KCH1 240740Z 10002KT 12/09 A3002 RMK A01 T01210085  RH  079%=      5-min Rain = 0
KCH1 240741Z 10002KT 12/09 A3002 RMK A01 T01210086  RH  079%=      5-min Rain = 0
KCH1 240742Z 09002KT 12/09 A3002 RMK A01 T01210087  RH  079%=      5-min Rain = 0
KCH1 240743Z 08002KT 12/09 A3002 RMK A01 T01230089  RH  080%=      5-min Rain = 0
KCH1 240744Z 08003KT 12/09 A3002 RMK A01 T01230088  RH  079%=      5-min Rain = 0
KCH1 240745Z 09003KT 12/09 A3002 RMK A01 T01230087  RH  079%=      5-min Rain = 0
KCH1 240746Z 11002KT 12/09 A3002 RMK A01 T01240091  RH  080%=      5-min Rain = 0
KCH1 240747Z 09003KT 13/09 A3002 RMK A01 T01250094  RH  081%=      5-min Rain = 0
KCH1 240748Z 09003KT 13/09 A3002 RMK A01 T01260093  RH  080%=      5-min Rain = 0
KCH1 240749Z 10002KT 13/09 A3002 RMK A01 T01270094  RH  080%=      5-min Rain = 0
KCH1 240750Z 14003KT 13/10 A3002 RMK A01 T01280097  RH  082%=      5-min Rain = 0
KCH1 240751Z 11002KT 13/11 A3002 RMK A01 T01300105  RH  085%=      5-min Rain = 0
KCH1 240752Z 10003KT 13/10 A3002 RMK A01 T01320101  RH  081%=      5-min Rain = 0
KCH1 240753Z 10004KT 13/09 A3002 RMK A01 T01310094  RH  078%=      5-min Rain = 0
KCH1 240754Z 11004KT 13/09 A3002 RMK A01 T01280092  RH  078%=      5-min Rain = 0
KCH1 240755Z 12004KT 13/09 A3002 RMK A01 T01270094  RH  080%=      5-min Rain = 0
KCH1 240756Z 11004KT 13/09 A3002 RMK A01 T01260093  RH  080%=      5-min Rain = 0
KCH1 240757Z 12004KT 13/09 A3002 RMK A01 T01250093  RH  081%=      5-min Rain = 0
KCH1 240758Z 12004KT 12/09 A3002 RMK A01 T01240092  RH  081%=      5-min Rain = 0
KCH1 240759Z 12004KT 12/09 A3002 RMK A01 T01230092  RH  081%=      5-min Rain = 0
KCH1 240800Z 13005KT 12/09 A3002 RMK A01 T01220089  RH  080%=      5-min Rain = 0
KCH1 240801Z 13004KT 12/09 A3002 RMK A01 T01200093  RH  083%=      5-min Rain = 0
KCH1 240802Z 12005KT 12/10 A3002 RMK A01 T01210096  RH  084%=      5-min Rain = 0
KCH1 240803Z 13005KT 12/10 A3002 RMK A01 T01220095  RH  083%=      5-min Rain = 0
KCH1 240804Z 13005KT 12/09 A3002 RMK A01 T01220094  RH  083%=      5-min Rain = 0
KCH1 240805Z 12006KT 12/09 A3002 RMK A01 T01220094  RH  083%=      5-min Rain = 0
KCH1 240806Z 12006KT 12/09 A3002 RMK A01 T01210092  RH  082%=      5-min Rain = 0
KCH1 240807Z 12006KT 12/09 A3002 RMK A01 T01200089  RH  081%=      5-min Rain = 0
KCH1 240808Z 12006KT 12/09 A3002 RMK A01 T01190089  RH  082%=      5-min Rain = 0
KCH1 240809Z 13005KT 12/09 A3002 RMK A01 T01170087  RH  082%=      5-min Rain = 0
KCH1 240810Z 12005KT 12/09 A3002 RMK A01 T01160090  RH  084%=      5-min Rain = 0
KCH1 240811Z 12004KT 12/09 A3002 RMK A01 T01160088  RH  083%=      5-min Rain = 0
KCH1 240812Z 12004KT 11/08 A3002 RMK A01 T01140084  RH  082%=      5-min Rain = 0
KCH1 240813Z 12004KT 11/08 A3002 RMK A01 T01130082  RH  081%=      5-min Rain = 0
KCH1 240814Z 12004KT 11/08 A3002 RMK A01 T01120084  RH  083%=      5-min Rain = 0
KCH1 240815Z 12004KT 11/09 A3002 RMK A01 T01110085  RH  084%=      5-min Rain = 0
KCH1 240816Z 12003KT 11/09 A3002 RMK A01 T01110086  RH  085%=      5-min Rain = 0
KCH1 240817Z 10003KT 11/09 A3002 RMK A01 T01110088  RH  085%=      5-min Rain = 0
KCH1 240818Z 07003KT 11/09 A3002 RMK A01 T01120090  RH  086%=      5-min Rain = 0
KCH1 240819Z 07003KT 11/09 A3002 RMK A01 T01120090  RH  086%=      5-min Rain = 0
KCH1 240820Z 07003KT 11/09 A3002 RMK A01 T01120090  RH  086%=      5-min Rain = 0
KCH1 240821Z 07003KT 11/09 A3002 RMK A01 T01130091  RH  086%=      5-min Rain = 0
KCH1 240822Z 06004KT 11/09 A3002 RMK A01 T01120091  RH  087%=      5-min Rain = 0
KCH1 240823Z 06003KT 11/09 A3002 RMK A01 T01130092  RH  087%=      5-min Rain = 0
KCH1 240824Z 07004KT 11/09 A3002 RMK A01 T01130092  RH  087%=      5-min Rain = 0
KCH1 240825Z 06004KT 11/09 A3002 RMK A01 T01130093  RH  087%=      5-min Rain = 0
KCH1 240826Z 06004KT 11/09 A3002 RMK A01 T01130094  RH  088%=      5-min Rain = 0
KCH1 240827Z 06004KT 11/10 A3002 RMK A01 T01140095  RH  088%=      5-min Rain = 0
KCH1 240828Z 06005KT 12/10 A3002 RMK A01 T01150096  RH  088%=      5-min Rain = 0
KCH1 240829Z 05004KT 12/10 A3002 RMK A01 T01150096  RH  088%=      5-min Rain = 0
KCH1 240830Z 05003KT 12/09 A3002 RMK A01 T01150094  RH  087%=      5-min Rain = 0
KCH1 240831Z 05004KT 11/09 A3002 RMK A01 T01130092  RH  086%=      5-min Rain = 0
KCH1 240832Z 06004KT 11/09 A3002 RMK A01 T01130094  RH  088%=      5-min Rain = 0
KCH1 240833Z 05004KT 11/10 A3002 RMK A01 T01130095  RH  089%=      5-min Rain = 0
KCH1 240834Z 05004KT 11/10 A3002 RMK A01 T01130095  RH  088%=      5-min Rain = 0
KCH1 240835Z 04004KT 11/09 A3002 RMK A01 T01130094  RH  088%=      5-min Rain = 0
KCH1 240836Z 04004KT 11/09 A3002 RMK A01 T01120092  RH  088%=      5-min Rain = 0
KCH1 240837Z 04004KT 11/09 A3002 RMK A01 T01120093  RH  088%=      5-min Rain = 0
KCH1 240838Z 04004KT 11/09 A3002 RMK A01 T01110093  RH  088%=      5-min Rain = 0
KCH1 240839Z 04004KT 11/09 A3002 RMK A01 T01110094  RH  089%=      5-min Rain = 0
KCH1 240840Z 05004KT 11/10 A3002 RMK A01 T01120096  RH  090%=      5-min Rain = 0
KCH1 240841Z 05004KT 11/10 A3002 RMK A01 T01130097  RH  090%=      5-min Rain = 0
KCH1 240842Z 05004KT 11/10 A3002 RMK A01 T01130096  RH  089%=      5-min Rain = 0
KCH1 240843Z 05004KT 11/10 A3002 RMK A01 T01130096  RH  089%=      5-min Rain = 0
KCH1 240844Z 04004KT 11/10 A3002 RMK A01 T01140097  RH  089%=      5-min Rain = 0
KCH1 240845Z 04003KT 11/10 A3002 RMK A01 T01140097  RH  089%=      5-min Rain = 0
KCH1 240846Z 04004KT 11/10 A3002 RMK A01 T01140097  RH  089%=      5-min Rain = 0
KCH1 240847Z 04003KT 11/10 A3002 RMK A01 T01140097  RH  090%=      5-min Rain = 0
KCH1 240848Z 04004KT 12/10 A3002 RMK A01 T01150099  RH  090%=      5-min Rain = 0
KCH1 240849Z 04004KT 12/10 A3002 RMK A01 T01150100  RH  090%=      5-min Rain = 0
KCH1 240850Z 04003KT 12/10 A3002 RMK A01 T01160101  RH  090%=      5-min Rain = 0
KCH1 240851Z 06003KT 12/10 A3002 RMK A01 T01170101  RH  090%=      5-min Rain = 0
KCH1 240852Z 05003KT 12/10 A3002 RMK A01 T01180101  RH  090%=      5-min Rain = 0
KCH1 240853Z 06003KT 12/10 A3002 RMK A01 T01180101  RH  089%=      5-min Rain = 0
KCH1 240854Z 06003KT 12/10 A3002 RMK A01 T01180101  RH  089%=      5-min Rain = 0
KCH1 240855Z 07003KT 12/10 A3002 RMK A01 T01180101  RH  089%=      5-min Rain = 0
KCH1 240856Z 06003KT 12/10 A3002 RMK A01 T01190102  RH  090%=      5-min Rain = 0
KCH1 240857Z 05003KT 12/10 A3002 RMK A01 T01190103  RH  090%=      5-min Rain = 0
KCH1 240858Z 06002KT 12/10 A3002 RMK A01 T01200103  RH  089%=      5-min Rain = 0
KCH1 240859Z 05001KT 12/11 A3002 RMK A01 T01210106  RH  091%=      5-min Rain = 0
KCH1 240900Z 05002KT 12/11 A3002 RMK A01 T01220106  RH  090%=      5-min Rain = 0
KCH1 240901Z 05002KT 12/11 A3002 RMK A01 T01220105  RH  090%=      5-min Rain = 0
KCH1 240902Z 08002KT 12/11 A3002 RMK A01 T01220106  RH  090%=      5-min Rain = 0
KCH1 240903Z 06002KT 12/11 A3002 RMK A01 T01230106  RH  090%=      5-min Rain = 0
KCH1 240904Z 07002KT 12/11 A3002 RMK A01 T01220105  RH  089%=      5-min Rain = 0
KCH1 240905Z 07002KT 12/11 A3002 RMK A01 T01220106  RH  090%=      5-min Rain = 0
KCH1 240906Z 07002KT 12/11 A3002 RMK A01 T01220107  RH  090%=      5-min Rain = 0
KCH1 240907Z 08002KT 12/11 A3002 RMK A01 T01220107  RH  090%=      5-min Rain = 0
KCH1 240908Z 07002KT 12/11 A3002 RMK A01 T01220106  RH  090%=      5-min Rain = 0
KCH1 240909Z 07002KT 12/11 A3002 RMK A01 T01220106  RH  090%=      5-min Rain = 0
KCH1 240910Z 08002KT 12/11 A3002 RMK A01 T01220106  RH  090%=      5-min Rain = 0
KCH1 240911Z 08002KT 12/11 A3002 RMK A01 T01230107  RH  090%=      5-min Rain = 0
KCH1 240912Z 08003KT 12/11 A3002 RMK A01 T01220105  RH  089%=      5-min Rain = 0
KCH1 240913Z 08002KT 12/10 A3002 RMK A01 T01210104  RH  089%=      5-min Rain = 0
KCH1 240914Z 07003KT 12/10 A3002 RMK A01 T01210104  RH  090%=      5-min Rain = 0
KCH1 240915Z 07003KT 12/11 A3002 RMK A01 T01210106  RH  090%=      5-min Rain = 0
KCH1 240916Z 08002KT 12/11 A3002 RMK A01 T01220106  RH  090%=      5-min Rain = 0
KCH1 240917Z 08003KT 12/11 A3002 RMK A01 T01220106  RH  090%=      5-min Rain = 0
KCH1 240918Z 08002KT 12/10 A3002 RMK A01 T01220104  RH  089%=      5-min Rain = 0
KCH1 240919Z 08002KT 12/10 A3002 RMK A01 T01210104  RH  089%=      5-min Rain = 0
KCH1 240920Z 09002KT 12/10 A3002 RMK A01 T01200103  RH  089%=      5-min Rain = 0
KCH1 240921Z 08002KT 12/10 A3002 RMK A01 T01190103  RH  089%=      5-min Rain = 0
KCH1 240922Z 08002KT 12/10 A3002 RMK A01 T01190103  RH  090%=      5-min Rain = 0
KCH1 240923Z 10001KT 12/10 A3002 RMK A01 T01190104  RH  091%=      5-min Rain = 0
KCH1 240924Z 09001KT 12/11 A3002 RMK A01 T01190105  RH  091%=      5-min Rain = 0
KCH1 240925Z 16001KT 12/11 A3002 RMK A01 T01190105  RH  091%=      5-min Rain = 0
KCH1 240926Z 13001KT 12/11 A3002 RMK A01 T01200107  RH  092%=      5-min Rain = 0
KCH1 240927Z 15000KT 12/11 A3002 RMK A01 T01200108  RH  092%=      5-min Rain = 0
KCH1 240928Z 13001KT 12/11 A3002 RMK A01 T01210108  RH  092%=      5-min Rain = 0
KCH1 240929Z 16001KT 12/11 A3002 RMK A01 T01210108  RH  092%=      5-min Rain = 0
KCH1 240930Z 15000KT 12/11 A3002 RMK A01 T01220111  RH  093%=      5-min Rain = 0
KCH1 240931Z 16000KT 12/11 A3002 RMK A01 T01230112  RH  093%=      5-min Rain = 0
KCH1 240932Z 16001KT 12/11 A3002 RMK A01 T01230111  RH  092%=      5-min Rain = 0
KCH1 240933Z 17002KT 12/11 A3002 RMK A01 T01230111  RH  092%=      5-min Rain = 0
KCH1 240934Z 17002KT 12/11 A3002 RMK A01 T01240112  RH  092%=      5-min Rain = 0
KCH1 240935Z 17001KT 12/11 A3002 RMK A01 T01240113  RH  093%=      5-min Rain = 0
KCH1 240936Z 16002KT 13/11 A3002 RMK A01 T01250113  RH  093%=      5-min Rain = 0
KCH1 240937Z 16001KT 13/11 A3002 RMK A01 T01250114  RH  093%=      5-min Rain = 0
KCH1 240938Z 16002KT 13/11 A3002 RMK A01 T01250114  RH  093%=      5-min Rain = 0
KCH1 240939Z 14002KT 13/11 A3002 RMK A01 T01250114  RH  093%=      5-min Rain = 0
KCH1 240940Z 16002KT 13/11 A3002 RMK A01 T01250113  RH  092%=      5-min Rain = 0
KCH1 240941Z 17002KT 12/11 A3002 RMK A01 T01240111  RH  092%=      5-min Rain = 0
KCH1 240942Z 16002KT 12/11 A3002 RMK A01 T01240111  RH  091%=      5-min Rain = 0
KCH1 240943Z 16001KT 12/11 A3002 RMK A01 T01240111  RH  091%=      5-min Rain = 0
KCH1 240944Z 13001KT 12/11 A3002 RMK A01 T01240110  RH  091%=      5-min Rain = 0
KCH1 240945Z 16002KT 12/11 A3002 RMK A01 T01240108  RH  090%=      5-min Rain = 0
KCH1 240946Z 15002KT 12/11 A3002 RMK A01 T01230108  RH  090%=      5-min Rain = 0
KCH1 240947Z 15001KT 12/11 A3002 RMK A01 T01220107  RH  091%=      5-min Rain = 0
KCH1 240948Z 13001KT 12/11 A3002 RMK A01 T01220107  RH  091%=      5-min Rain = 0
KCH1 240949Z 14001KT 12/11 A3002 RMK A01 T01210107  RH  091%=      5-min Rain = 0
KCH1 240950Z 14001KT 12/11 A3002 RMK A01 T01200106  RH  091%=      5-min Rain = 0
KCH1 240951Z 16002KT 12/11 A3002 RMK A01 T01190105  RH  091%=      5-min Rain = 0
KCH1 240952Z 13000KT 12/11 A3002 RMK A01 T01190106  RH  092%=      5-min Rain = 0
KCH1 240953Z 13001KT 12/11 A3002 RMK A01 T01200106  RH  092%=      5-min Rain = 0
KCH1 240954Z 12000KT 12/11 A3002 RMK A01 T01200106  RH  091%=      5-min Rain = 0
KCH1 240955Z 09001KT 12/11 A3002 RMK A01 T01200106  RH  092%=      5-min Rain = 0
KCH1 240956Z 10001KT 12/11 A3002 RMK A01 T01200107  RH  092%=      5-min Rain = 0
KCH1 240957Z 11001KT 12/11 A3002 RMK A01 T01200107  RH  091%=      5-min Rain = 0
KCH1 240958Z 12001KT 12/11 A3002 RMK A01 T01200106  RH  091%=      5-min Rain = 0
KCH1 240959Z 13001KT 12/11 A3002 RMK A01 T01200107  RH  092%=      5-min Rain = 0
KCH1 241000Z 14001KT 12/11 A3002 RMK A01 T01200108  RH  092%=      5-min Rain = 0
KCH1 241001Z 13001KT 12/11 A3002 RMK A01 T01210109  RH  092%=      5-min Rain = 0
KCH1 241002Z 11001KT 12/11 A3002 RMK A01 T01220110  RH  092%=      5-min Rain = 0
KCH1 241003Z 08000KT 12/11 A3002 RMK A01 T01220110  RH  092%=      5-min Rain = 0
KCH1 241004Z 07002KT 12/11 A3002 RMK A01 T01230110  RH  092%=      5-min Rain = 0
KCH1 241005Z 06002KT 12/11 A3002 RMK A01 T01230110  RH  092%=      5-min Rain = 0
KCH1 241006Z 05002KT 12/11 A3002 RMK A01 T01240111  RH  092%=      5-min Rain = 0
KCH1 241007Z 06002KT 12/11 A3002 RMK A01 T01240111  RH  091%=      5-min Rain = 0
KCH1 241008Z 06002KT 13/11 A3002 RMK A01 T01250111  RH  091%=      5-min Rain = 0
KCH1 241009Z 06002KT 13/11 A3002 RMK A01 T01250111  RH  091%=      5-min Rain = 0
KCH1 241010Z 05002KT 13/11 A3002 RMK A01 T01260111  RH  091%=      5-min Rain = 0
KCH1 241011Z 08001KT 13/11 A3002 RMK A01 T01260112  RH  091%=      5-min Rain = 0
KCH1 241012Z 07001KT 13/11 A3002 RMK A01 T01270113  RH  091%=      5-min Rain = 0
KCH1 241013Z 06001KT 13/11 A3002 RMK A01 T01270113  RH  091%=      5-min Rain = 0
KCH1 241014Z 07001KT 13/11 A3002 RMK A01 T01280114  RH  092%=      5-min Rain = 0
KCH1 241015Z 04000KT 13/12 A3002 RMK A01 T01290117  RH  092%=      5-min Rain = 0
KCH1 241016Z 08000KT 13/12 A3002 RMK A01 T01300118  RH  093%=      5-min Rain = 0
KCH1 241017Z 17000KT 13/12 A3002 RMK A01 T01310119  RH  093%=      5-min Rain = 0
KCH1 241018Z 10000KT 13/12 A3003 RMK A01 T01320120  RH  093%=      5-min Rain = 0
KCH1 241019Z 21000KT 13/12 A3003 RMK A01 T01320120  RH  092%=      5-min Rain = 0
KCH1 241020Z 10000KT 13/12 A3003 RMK A01 T01330121  RH  092%=      5-min Rain = 0
KCH1 241021Z 00000KT 13/12 A3003 RMK A01 T01340122  RH  092%=      5-min Rain = 0
KCH1 241022Z 00000KT 13/12 A3003 RMK A01 T01340122  RH  092%=      5-min Rain = 0
KCH1 241023Z 00000KT 14/12 A3003 RMK A01 T01350121  RH  091%=      5-min Rain = 0
KCH1 241024Z 00000KT 13/12 A3003 RMK A01 T01340120  RH  091%=      5-min Rain = 0
KCH1 241025Z 15000KT 13/12 A3003 RMK A01 T01340121  RH  092%=      5-min Rain = 0
KCH1 241026Z 14000KT 13/12 A3003 RMK A01 T01340122  RH  092%=      5-min Rain = 0
KCH1 241027Z 16000KT 14/13 A3003 RMK A01 T01360125  RH  093%=      5-min Rain = 0
KCH1 241028Z 14001KT 14/13 A3003 RMK A01 T01370126  RH  093%=      5-min Rain = 0
KCH1 241029Z 17001KT 14/13 A3003 RMK A01 T01380125  RH  092%=      5-min Rain = 0
KCH1 241030Z 19001KT 14/13 A3003 RMK A01 T01380126  RH  092%=      5-min Rain = 0
KCH1 241031Z 15001KT 14/13 A3003 RMK A01 T01390126  RH  092%=      5-min Rain = 0
KCH1 241032Z 17000KT 14/13 A3003 RMK A01 T01390125  RH  091%=      5-min Rain = 0
KCH1 241033Z 20001KT 14/13 A3003 RMK A01 T01390126  RH  092%=      5-min Rain = 0
KCH1 241034Z 21001KT 14/13 A3003 RMK A01 T01390126  RH  091%=      5-min Rain = 0
KCH1 241035Z 16001KT 14/13 A3003 RMK A01 T01390125  RH  091%=      5-min Rain = 0
KCH1 241036Z 20001KT 14/13 A3003 RMK A01 T01390125  RH  091%=      5-min Rain = 0
KCH1 241037Z 21002KT 14/13 A3003 RMK A01 T01390125  RH  091%=      5-min Rain = 0
KCH1 241038Z 22002KT 14/13 A3003 RMK A01 T01400129  RH  093%=      5-min Rain = 0
KCH1 241039Z 22001KT 14/13 A3003 RMK A01 T01420133  RH  094%=      5-min Rain = 0
KCH1 241040Z 22003KT 14/14 A3003 RMK A01 T01440136  RH  095%=      5-min Rain = 0
KCH1 241041Z 22003KT 15/14 A3003 RMK A01 T01460138  RH  095%=      5-min Rain = 0
KCH1 241042Z 22003KT 15/14 A3003 RMK A01 T01480140  RH  095%=      5-min Rain = 0
KCH1 241043Z 23003KT 15/14 A3003 RMK A01 T01500141  RH  094%=      5-min Rain = 0
KCH1 241044Z 21003KT 15/14 A3003 RMK A01 T01520142  RH  094%=      5-min Rain = 0
KCH1 241045Z 21003KT 15/14 A3003 RMK A01 T01530140  RH  092%=      5-min Rain = 0
KCH1 241046Z 20002KT 15/14 A3003 RMK A01 T01530140  RH  092%=      5-min Rain = 0
KCH1 241047Z 20002KT 15/14 A3003 RMK A01 T01530138  RH  091%=      5-min Rain = 0
KCH1 241048Z 20002KT 15/14 A3003 RMK A01 T01530137  RH  090%=      5-min Rain = 0
KCH1 241049Z 22002KT 15/14 A3003 RMK A01 T01520137  RH  090%=      5-min Rain = 0
KCH1 241050Z 19002KT 15/14 A3003 RMK A01 T01520138  RH  091%=      5-min Rain = 0
KCH1 241051Z 19002KT 15/14 A3003 RMK A01 T01520135  RH  089%=      5-min Rain = 0
KCH1 241052Z 18003KT 15/13 A3003 RMK A01 T01500133  RH  089%=      5-min Rain = 0
KCH1 241053Z 19002KT 15/14 A3003 RMK A01 T01510136  RH  091%=      5-min Rain = 0
KCH1 241054Z 18002KT 15/14 A3003 RMK A01 T01510137  RH  091%=      5-min Rain = 0
KCH1 241055Z 18002KT 15/14 A3003 RMK A01 T01510135  RH  090%=      5-min Rain = 0
KCH1 241056Z 17002KT 15/13 A3003 RMK A01 T01500131  RH  088%=      5-min Rain = 0
KCH1 241057Z 20002KT 15/13 A3003 RMK A01 T01490130  RH  089%=      5-min Rain = 0
KCH1 241058Z 17002KT 15/13 A3003 RMK A01 T01480132  RH  090%=      5-min Rain = 0
KCH1 241059Z 15002KT 15/13 A3003 RMK A01 T01480130  RH  089%=      5-min Rain = 0
KCH1 241100Z 19002KT 15/13 A3003 RMK A01 T01470129  RH  089%=      5-min Rain = 0
KCH1 241101Z 16002KT 15/13 A3003 RMK A01 T01460130  RH  090%=      5-min Rain = 0
KCH1 241102Z 16003KT 15/13 A3003 RMK A01 T01460132  RH  091%=      5-min Rain = 0
KCH1 241103Z 18004KT 15/13 A3003 RMK A01 T01470133  RH  091%=      5-min Rain = 0
KCH1 241104Z 19004KT 15/14 A3003 RMK A01 T01490138  RH  093%=      5-min Rain = 0
KCH1 241105Z 16002KT 15/14 A3003 RMK A01 T01510140  RH  093%=      5-min Rain = 0
KCH1 241106Z 18002KT 15/14 A3003 RMK A01 T01510138  RH  092%=      5-min Rain = 0
KCH1 241107Z 17002KT 15/14 A3003 RMK A01 T01510138  RH  092%=      5-min Rain = 0
KCH1 241108Z 18003KT 15/14 A3003 RMK A01 T01510139  RH  092%=      5-min Rain = 0
KCH1 241109Z 18003KT 15/14 A3003 RMK A01 T01520140  RH  092%=      5-min Rain = 0
KCH1 241110Z 19003KT 15/14 A3003 RMK A01 T01530141  RH  093%=      5-min Rain = 0
KCH1 241111Z 20004KT 15/14 A3003 RMK A01 T01540142  RH  093%=      5-min Rain = 0
KCH1 241112Z 19004KT 16/15 A3003 RMK A01 T01560145  RH  093%=      5-min Rain = 0
KCH1 241113Z 19004KT 16/15 A3003 RMK A01 T01570146  RH  093%=      5-min Rain = 0
KCH1 241114Z 19004KT 16/15 A3003 RMK A01 T01580146  RH  093%=      5-min Rain = 0
KCH1 241115Z 19005KT 16/15 A3003 RMK A01 T01590147  RH  092%=      5-min Rain = 0
KCH1 241116Z 19005KT 16/15 A3003 RMK A01 T01600147  RH  092%=      5-min Rain = 0
KCH1 241117Z 19004KT 16/15 A3004 RMK A01 T01600147  RH  092%=      5-min Rain = 0
KCH1 241118Z 19003KT 16/15 A3004 RMK A01 T01610147  RH  092%=      5-min Rain = 0
KCH1 241119Z 18004KT 16/15 A3004 RMK A01 T01610147  RH  091%=      5-min Rain = 0
KCH1 241120Z 19004KT 16/15 A3004 RMK A01 T01610147  RH  091%=      5-min Rain = 0
KCH1 241121Z 18004KT 16/15 A3004 RMK A01 T01610147  RH  091%=      5-min Rain = 0
KCH1 241122Z 17003KT 16/15 A3004 RMK A01 T01610146  RH  091%=      5-min Rain = 0
KCH1 241123Z 18005KT 16/15 A3004 RMK A01 T01610146  RH  091%=      5-min Rain = 0
KCH1 241124Z 18004KT 16/15 A3004 RMK A01 T01610147  RH  091%=      5-min Rain = 0
KCH1 241125Z 17003KT 16/15 A3004 RMK A01 T01610147  RH  091%=      5-min Rain = 0
KCH1 241126Z 16003KT 16/15 A3004 RMK A01 T01610145  RH  090%=      5-min Rain = 0
KCH1 241127Z 14002KT 16/14 A3004 RMK A01 T01600143  RH  090%=      5-min Rain = 0
KCH1 241128Z 15002KT 16/14 A3004 RMK A01 T01580141  RH  090%=      5-min Rain = 0
KCH1 241129Z 16003KT 16/14 A3004 RMK A01 T01570141  RH  090%=      5-min Rain = 0
KCH1 241130Z 14002KT 16/14 A3004 RMK A01 T01570142  RH  091%=      5-min Rain = 0
KCH1 241131Z 14003KT 16/14 A3004 RMK A01 T01560142  RH  091%=      5-min Rain = 0
KCH1 241132Z 13003KT 16/14 A3004 RMK A01 T01560141  RH  091%=      5-min Rain = 0
KCH1 241133Z 13003KT 16/14 A3004 RMK A01 T01550141  RH  091%=      5-min Rain = 0
KCH1 241134Z 13003KT 15/14 A3004 RMK A01 T01540141  RH  092%=      5-min Rain = 0
KCH1 241135Z 13003KT 15/14 A3004 RMK A01 T01540141  RH  092%=      5-min Rain = 0
KCH1 241136Z 13003KT 15/14 A3004 RMK A01 T01540142  RH  092%=      5-min Rain = 0
KCH1 241137Z 13004KT 15/14 A3004 RMK A01 T01530141  RH  093%=      5-min Rain = 0
KCH1 241138Z 13004KT 15/14 A3004 RMK A01 T01530141  RH  093%=      5-min Rain = 0
KCH1 241139Z 13004KT 15/14 A3004 RMK A01 T01530142  RH  093%=      5-min Rain = 0
KCH1 241140Z 14004KT 15/14 A3004 RMK A01 T01530142  RH  093%=      5-min Rain = 0
KCH1 241141Z 14004KT 15/14 A3004 RMK A01 T01520141  RH  093%=      5-min Rain = 0
KCH1 241142Z 13004KT 15/14 A3004 RMK A01 T01520142  RH  093%=      5-min Rain = 0
KCH1 241143Z 13005KT 15/14 A3004 RMK A01 T01520141  RH  093%=      5-min Rain = 0
KCH1 241144Z 13005KT 15/14 A3003 RMK A01 T01520142  RH  093%=      5-min Rain = 0
KCH1 241145Z 14005KT 15/14 A3003 RMK A01 T01520141  RH  094%=      5-min Rain = 0
KCH1 241146Z 14005KT 15/14 A3003 RMK A01 T01520142  RH  094%=      5-min Rain = 0
KCH1 241147Z 14005KT 15/14 A3003 RMK A01 T01520142  RH  094%=      5-min Rain = 0
KCH1 241148Z 14005KT 15/14 A3003 RMK A01 T01520142  RH  094%=      5-min Rain = 0
KCH1 241149Z 13006KT 15/14 A3003 RMK A01 T01520142  RH  094%=      5-min Rain = 0
KCH1 241150Z 13005KT 15/14 A3003 RMK A01 T01520142  RH  094%=      5-min Rain = 0
KCH1 241151Z 14005KT 15/14 A3003 RMK A01 T01520142  RH  094%=      5-min Rain = 0
KCH1 241152Z 14005KT 15/14 A3003 RMK A01 T01520143  RH  094%=      5-min Rain = 0
KCH1 241153Z 13004KT 15/14 A3003 RMK A01 T01520143  RH  094%=      5-min Rain = 0
KCH1 241154Z 13005KT 15/14 A3003 RMK A01 T01520143  RH  094%=      5-min Rain = 0
KCH1 241155Z 13004KT 15/14 A3003 RMK A01 T01520143  RH  094%=      5-min Rain = 0
KCH1 241156Z 12005KT 15/14 A3003 RMK A01 T01520143  RH  094%=      5-min Rain = 0
KCH1 241157Z 12004KT 15/14 A3003 RMK A01 T01520143  RH  094%=      5-min Rain = 0
KCH1 241158Z 12004KT 15/14 A3003 RMK A01 T01520144  RH  094%=      5-min Rain = 0
KCH1 241159Z 12004KT 15/14 A3003 RMK A01 T01520143  RH  095%=      5-min Rain = 0
KCH1 241200Z 13003KT 15/14 A3003 RMK A01 T01530144  RH  095%=      5-min Rain = 0
KCH1 241201Z 12003KT 15/15 A3003 RMK A01 T01530145  RH  095%=      5-min Rain = 0
KCH1 241202Z 10002KT 15/15 A3003 RMK A01 T01540145  RH  095%=      5-min Rain = 0
KCH1 241203Z 11002KT 15/15 A3004 RMK A01 T01540145  RH  094%=      5-min Rain = 0
KCH1 241204Z 05001KT 15/15 A3004 RMK A01 T01540145  RH  094%=      5-min Rain = 0
KCH1 241205Z 01001KT 15/15 A3004 RMK A01 T01540145  RH  094%=      5-min Rain = 0
KCH1 241206Z 36002KT 15/14 A3004 RMK A01 T01540144  RH  094%=      5-min Rain = 0
KCH1 241207Z 35003KT 15/14 A3004 RMK A01 T01530144  RH  094%=      5-min Rain = 0
KCH1 241208Z 36002KT 15/14 A3004 RMK A01 T01530144  RH  094%=      5-min Rain = 0
KCH1 241209Z 34001KT 15/15 A3004 RMK A01 T01540145  RH  094%=      5-min Rain = 0
KCH1 241210Z 33000KT 15/15 A3004 RMK A01 T01540145  RH  094%=      5-min Rain = 0
KCH1 241211Z 31000KT 15/15 A3004 RMK A01 T01540145  RH  094%=      5-min Rain = 0
KCH1 241212Z 07000KT 15/15 A3004 RMK A01 T01540145  RH  095%=      5-min Rain = 0
KCH1 241213Z 11001KT 16/15 A3004 RMK A01 T01550146  RH  095%=      5-min Rain = 0
KCH1 241214Z 16000KT 16/15 A3004 RMK A01 T01550147  RH  095%=      5-min Rain = 0
KCH1 241215Z 16001KT 16/15 A3004 RMK A01 T01550146  RH  094%=      5-min Rain = 0
KCH1 241216Z 17002KT 16/15 A3004 RMK A01 T01550145  RH  094%=      5-min Rain = 0
KCH1 241217Z 17002KT 16/15 A3004 RMK A01 T01550145  RH  094%=      5-min Rain = 0
KCH1 241218Z 17003KT 16/15 A3004 RMK A01 T01550145  RH  094%=      5-min Rain = 0
KCH1 241219Z 16003KT 16/15 A3004 RMK A01 T01550145  RH  094%=      5-min Rain = 0
KCH1 241220Z 16004KT 16/15 A3004 RMK A01 T01550145  RH  094%=      5-min Rain = 0
KCH1 241221Z 16003KT 16/15 A3004 RMK A01 T01550145  RH  094%=      5-min Rain = 0
KCH1 241222Z 16003KT 15/14 A3004 RMK A01 T01540144  RH  094%=      5-min Rain = 0
KCH1 241223Z 15004KT 15/14 A3004 RMK A01 T01540144  RH  094%=      5-min Rain = 0
KCH1 241224Z 15004KT 15/14 A3004 RMK A01 T01540144  RH  094%=      5-min Rain = 0
KCH1 241225Z 15004KT 15/14 A3004 RMK A01 T01530144  RH  094%=      5-min Rain = 0
KCH1 241226Z 15004KT 15/14 A3004 RMK A01 T01530144  RH  094%=      5-min Rain = 0
KCH1 241227Z 15004KT 15/14 A3004 RMK A01 T01520144  RH  094%=      5-min Rain = 0
KCH1 241228Z 14004KT 15/14 A3004 RMK A01 T01520143  RH  094%=      5-min Rain = 0
KCH1 241229Z 14003KT 15/14 A3004 RMK A01 T01510142  RH  095%=      5-min Rain = 0
KCH1 241230Z 13003KT 15/14 A3004 RMK A01 T01510143  RH  095%=      5-min Rain = 0
KCH1 241231Z 13003KT 15/14 A3004 RMK A01 T01510144  RH  095%=      5-min Rain = 0
KCH1 241232Z 12003KT 15/14 A3004 RMK A01 T01500143  RH  095%=      5-min Rain = 0
KCH1 241233Z 11002KT 15/14 A3004 RMK A01 T01500143  RH  096%=      5-min Rain = 0
KCH1 241234Z 11002KT 15/14 A3004 RMK A01 T01500143  RH  096%=      5-min Rain = 0
KCH1 241235Z 10002KT 15/14 A3004 RMK A01 T01490143  RH  096%=      5-min Rain = 0
KCH1 241236Z 10002KT 15/14 A3004 RMK A01 T01490143  RH  096%=      5-min Rain = 0
KCH1 241237Z 10002KT 15/14 A3004 RMK A01 T01490143  RH  096%=      5-min Rain = 0
KCH1 241238Z 10002KT 15/14 A3004 RMK A01 T01490143  RH  096%=      5-min Rain = 0
KCH1 241239Z 09002KT 15/14 A3004 RMK A01 T01480142  RH  096%=      5-min Rain = 0
KCH1 241240Z 09001KT 15/14 A3004 RMK A01 T01480142  RH  096%=      5-min Rain = 0
KCH1 241241Z 09002KT 15/14 A3004 RMK A01 T01480143  RH  097%=      5-min Rain = 0
KCH1 241242Z 09002KT 15/14 A3004 RMK A01 T01480142  RH  097%=      5-min Rain = 0
KCH1 241243Z 10001KT 15/14 A3004 RMK A01 T01470142  RH  097%=      5-min Rain = 0
KCH1 241244Z 10002KT 15/14 A3004 RMK A01 T01470143  RH  097%=      5-min Rain = 0
KCH1 241245Z 10002KT 15/14 A3004 RMK A01 T01480143  RH  097%=      5-min Rain = 0
KCH1 241246Z 09002KT 15/14 A3004 RMK A01 T01480144  RH  097%=      5-min Rain = 0
KCH1 241247Z 09002KT 15/14 A3004 RMK A01 T01470143  RH  097%=      5-min Rain = 0
KCH1 241248Z 09003KT 15/14 A3004 RMK A01 T01470143  RH  097%=      5-min Rain = 0
KCH1 241249Z 09003KT 15/14 A3004 RMK A01 T01470144  RH  097%=      5-min Rain = 0
KCH1 241250Z 09003KT 15/14 A3004 RMK A01 T01470144  RH  098%=      5-min Rain = 0
KCH1 241251Z 09003KT 15/14 A3004 RMK A01 T01470143  RH  098%=      5-min Rain = 0
KCH1 241252Z 09004KT 15/14 A3004 RMK A01 T01470143  RH  098%=      5-min Rain = 0
KCH1 241253Z 09004KT 15/14 A3004 RMK A01 T01450142  RH  098%=      5-min Rain = 0
KCH1 241254Z 08004KT 15/14 A3004 RMK A01 T01450141  RH  098%=      5-min Rain = 0
KCH1 241255Z 08004KT 14/14 A3004 RMK A01 T01440140  RH  098%=      5-min Rain = 0
KCH1 241256Z 08004KT 14/14 A3004 RMK A01 T01430140  RH  098%=      5-min Rain = 0
KCH1 241257Z 08004KT 14/14 A3005 RMK A01 T01420139  RH  098%=      5-min Rain = 0
KCH1 241258Z 08004KT 14/14 A3005 RMK A01 T01410139  RH  098%=      5-min Rain = 0
KCH1 241259Z 08004KT 14/14 A3005 RMK A01 T01410139  RH  099%=      5-min Rain = 0
KCH1 241300Z 08004KT 14/14 A3005 RMK A01 T01400138  RH  098%=      5-min Rain = 0
KCH1 241301Z 09004KT 14/14 A3005 RMK A01 T01390137  RH  098%=      5-min Rain = 0
KCH1 241302Z 08004KT 14/14 A3005 RMK A01 T01390137  RH  099%=      5-min Rain = 0
KCH1 241303Z 08004KT 14/14 A3005 RMK A01 T01390137  RH  099%=      5-min Rain = 0
KCH1 241304Z 09003KT 14/14 A3005 RMK A01 T01390137  RH  099%=      5-min Rain = 0
KCH1 241305Z 09003KT 14/14 A3005 RMK A01 T01390137  RH  099%=      5-min Rain = 0
KCH1 241306Z 08003KT 14/14 A3005 RMK A01 T01390137  RH  099%=      5-min Rain = 0
KCH1 241307Z 08003KT 14/14 A3005 RMK A01 T01390138  RH  099%=      5-min Rain = 0
KCH1 241308Z 08003KT 14/14 A3005 RMK A01 T01400139  RH  099%=      5-min Rain = 0
KCH1 241309Z 09003KT 14/14 A3005 RMK A01 T01410140  RH  099%=      5-min Rain = 0
KCH1 241310Z 08003KT 14/14 A3005 RMK A01 T01410140  RH  099%=      5-min Rain = 0
KCH1 241311Z 08003KT 14/14 A3005 RMK A01 T01410140  RH  099%=      5-min Rain = 0
KCH1 241312Z 08003KT 14/14 A3005 RMK A01 T01420140  RH  099%=      5-min Rain = 0
KCH1 241313Z 08003KT 14/14 A3005 RMK A01 T01420141  RH  099%=      5-min Rain = 0
KCH1 241314Z 08003KT 14/14 A3005 RMK A01 T01430140  RH  099%=      5-min Rain = 0
KCH1 241315Z 08003KT 14/14 A3005 RMK A01 T01430140  RH  098%=      5-min Rain = 0
KCH1 241316Z 08003KT 14/14 A3005 RMK A01 T01430140  RH  098%=      5-min Rain = 0
KCH1 241317Z 07003KT 14/14 A3005 RMK A01 T01430140  RH  098%=      5-min Rain = 0
KCH1 241318Z 08003KT 14/14 A3005 RMK A01 T01430140  RH  098%=      5-min Rain = 0
KCH1 241319Z 08003KT 14/14 A3005 RMK A01 T01440140  RH  098%=      5-min Rain = 0
KCH1 241320Z 08003KT 14/14 A3005 RMK A01 T01440141  RH  098%=      5-min Rain = 0
KCH1 241321Z 08003KT 14/14 A3005 RMK A01 T01440140  RH  098%=      5-min Rain = 0
KCH1 241322Z 09003KT 14/14 A3006 RMK A01 T01430140  RH  098%=      5-min Rain = 0
KCH1 241323Z 09003KT 14/14 A3006 RMK A01 T01430139  RH  097%=      5-min Rain = 0
KCH1 241324Z 09003KT 14/14 A3006 RMK A01 T01420139  RH  097%=      5-min Rain = 0
KCH1 241325Z 09003KT 14/14 A3006 RMK A01 T01430139  RH  098%=      5-min Rain = 0
KCH1 241326Z 09003KT 14/14 A3006 RMK A01 T01420139  RH  098%=      5-min Rain = 0
KCH1 241327Z 10003KT 14/14 A3006 RMK A01 T01420139  RH  098%=      5-min Rain = 0
KCH1 241328Z 10003KT 14/14 A3006 RMK A01 T01420139  RH  098%=      5-min Rain = 0
KCH1 241329Z 09003KT 14/14 A3006 RMK A01 T01420139  RH  098%=      5-min Rain = 0
KCH1 241330Z 09002KT 14/14 A3006 RMK A01 T01410138  RH  098%=      5-min Rain = 0
KCH1 241331Z 09002KT 14/14 A3006 RMK A01 T01420139  RH  098%=      5-min Rain = 0
KCH1 241332Z 09002KT 14/14 A3006 RMK A01 T01420139  RH  098%=      5-min Rain = 0
KCH1 241333Z 09002KT 14/14 A3006 RMK A01 T01420139  RH  098%=      5-min Rain = 0
KCH1 241334Z 09002KT 14/14 A3006 RMK A01 T01410139  RH  098%=      5-min Rain = 0
KCH1 241335Z 10002KT 14/14 A3006 RMK A01 T01420139  RH  098%=      5-min Rain = 0
KCH1 241336Z 09002KT 14/14 A3006 RMK A01 T01420139  RH  098%=      5-min Rain = 0
KCH1 241337Z 10002KT 14/14 A3006 RMK A01 T01420139  RH  098%=      5-min Rain = 0
KCH1 241338Z 10002KT 14/14 A3006 RMK A01 T01420140  RH  098%=      5-min Rain = 0
KCH1 241339Z 09001KT 14/14 A3006 RMK A01 T01430140  RH  098%=      5-min Rain = 0
KCH1 241340Z 09001KT 14/14 A3006 RMK A01 T01430140  RH  098%=      5-min Rain = 0
KCH1 241341Z 09001KT 14/14 A3006 RMK A01 T01430140  RH  098%=      5-min Rain = 0
KCH1 241342Z 09001KT 14/14 A3006 RMK A01 T01440140  RH  098%=      5-min Rain = 0
KCH1 241343Z 08001KT 14/14 A3006 RMK A01 T01440140  RH  098%=      5-min Rain = 0
KCH1 241344Z 08002KT 14/14 A3006 RMK A01 T01440141  RH  098%=      5-min Rain = 0
KCH1 241345Z 08002KT 14/14 A3006 RMK A01 T01440140  RH  097%=      5-min Rain = 0
KCH1 241346Z 08002KT 15/14 A3006 RMK A01 T01450141  RH  097%=      5-min Rain = 0
KCH1 241347Z 07002KT 15/14 A3006 RMK A01 T01450141  RH  097%=      5-min Rain = 0
KCH1 241348Z 07003KT 15/14 A3006 RMK A01 T01460141  RH  097%=      5-min Rain = 0
KCH1 241349Z 06003KT 15/14 A3006 RMK A01 T01470142  RH  097%=      5-min Rain = 0
KCH1 241350Z 06003KT 15/14 A3006 RMK A01 T01480143  RH  097%=      5-min Rain = 0
KCH1 241351Z 06003KT 15/14 A3006 RMK A01 T01480143  RH  097%=      5-min Rain = 0
KCH1 241352Z 07003KT 15/14 A3006 RMK A01 T01490143  RH  096%=      5-min Rain = 0
KCH1 241353Z 07003KT 15/14 A3006 RMK A01 T01490143  RH  096%=      5-min Rain = 0
KCH1 241354Z 07003KT 15/14 A3006 RMK A01 T01490143  RH  096%=      5-min Rain = 0
KCH1 241355Z 07003KT 15/14 A3006 RMK A01 T01490143  RH  096%=      5-min Rain = 0
KCH1 241356Z 07003KT 15/14 A3006 RMK A01 T01500144  RH  096%=      5-min Rain = 0
KCH1 241357Z 08003KT 15/14 A3006 RMK A01 T01510144  RH  096%=      5-min Rain = 0
KCH1 241358Z 08003KT 15/14 A3006 RMK A01 T01510143  RH  095%=      5-min Rain = 0
KCH1 241359Z 08003KT 15/14 A3006 RMK A01 T01510144  RH  096%=      5-min Rain = 0
KCH1 241400Z 08003KT 15/15 A3006 RMK A01 T01520146  RH  096%=      5-min Rain = 0
KCH1 241401Z 09003KT 15/15 A3006 RMK A01 T01540148  RH  096%=      5-min Rain = 0
KCH1 241402Z 10003KT 16/15 A3006 RMK A01 T01550148  RH  095%=      5-min Rain = 0
KCH1 241403Z 10003KT 16/15 A3006 RMK A01 T01560148  RH  095%=      5-min Rain = 0
KCH1 241404Z 11004KT 16/15 A3006 RMK A01 T01580148  RH  094%=      5-min Rain = 0
KCH1 241405Z 11003KT 16/15 A3006 RMK A01 T01580147  RH  093%=      5-min Rain = 0
KCH1 241406Z 12004KT 16/15 A3006 RMK A01 T01580147  RH  093%=      5-min Rain = 0
KCH1 241407Z 13003KT 16/15 A3006 RMK A01 T01580148  RH  094%=      5-min Rain = 0
KCH1 241408Z 12003KT 16/15 A3006 RMK A01 T01600149  RH  094%=      5-min Rain = 0
KCH1 241409Z 12004KT 16/15 A3006 RMK A01 T01600149  RH  093%=      5-min Rain = 0
KCH1 241410Z 12003KT 16/15 A3006 RMK A01 T01610149  RH  093%=      5-min Rain = 0
KCH1 241411Z 12003KT 16/15 A3006 RMK A01 T01620150  RH  092%=      5-min Rain = 0
KCH1 241412Z 13003KT 16/15 A3006 RMK A01 T01620148  RH  091%=      5-min Rain = 0
KCH1 241413Z 13004KT 16/15 A3006 RMK A01 T01620148  RH  091%=      5-min Rain = 0
KCH1 241414Z 12003KT 16/15 A3006 RMK A01 T01620147  RH  091%=      5-min Rain = 0
KCH1 241415Z 12004KT 16/15 A3006 RMK A01 T01620147  RH  091%=      5-min Rain = 0
KCH1 241416Z 11004KT 16/15 A3006 RMK A01 T01610147  RH  091%=      5-min Rain = 0
KCH1 241417Z 13004KT 16/15 A3007 RMK A01 T01610147  RH  091%=      5-min Rain = 0
KCH1 241418Z 12004KT 16/15 A3007 RMK A01 T01610148  RH  092%=      5-min Rain = 0
KCH1 241419Z 13003KT 16/15 A3007 RMK A01 T01620149  RH  092%=      5-min Rain = 0
KCH1 241420Z 12004KT 16/15 A3007 RMK A01 T01630150  RH  092%=      5-min Rain = 0
KCH1 241421Z 12004KT 17/15 A3007 RMK A01 T01650150  RH  091%=      5-min Rain = 0
KCH1 241422Z 13003KT 17/15 A3007 RMK A01 T01660151  RH  091%=      5-min Rain = 0
KCH1 241423Z 12004KT 17/15 A3007 RMK A01 T01670150  RH  090%=      5-min Rain = 0
KCH1 241424Z 11003KT 17/15 A3007 RMK A01 T01670150  RH  089%=      5-min Rain = 0
KCH1 241425Z 13004KT 17/15 A3007 RMK A01 T01680152  RH  090%=      5-min Rain = 0
KCH1 241426Z 14004KT 17/15 A3007 RMK A01 T01690151  RH  089%=      5-min Rain = 0
KCH1 241427Z 14003KT 17/15 A3007 RMK A01 T01700150  RH  088%=      5-min Rain = 0
KCH1 241428Z 16003KT 17/15 A3007 RMK A01 T01700151  RH  088%=      5-min Rain = 0
KCH1 241429Z 14003KT 17/15 A3007 RMK A01 T01710152  RH  089%=      5-min Rain = 0
KCH1 241430Z 12002KT 17/15 A3007 RMK A01 T01720151  RH  087%=      5-min Rain = 0
KCH1 241431Z 14003KT 17/15 A3007 RMK A01 T01720150  RH  087%=      5-min Rain = 0
KCH1 241432Z 13005KT 17/15 A3007 RMK A01 T01720150  RH  087%=      5-min Rain = 0
KCH1 241433Z 13004KT 17/15 A3007 RMK A01 T01720149  RH  087%=      5-min Rain = 0
KCH1 241434Z 15004KT 17/15 A3007 RMK A01 T01720151  RH  088%=      5-min Rain = 0
KCH1 241435Z 16004KT 17/15 A3007 RMK A01 T01730152  RH  087%=      5-min Rain = 0
KCH1 241436Z 13005KT 17/15 A3007 RMK A01 T01730151  RH  086%=      5-min Rain = 0
KCH1 241437Z 14005KT 17/15 A3007 RMK A01 T01730150  RH  087%=      5-min Rain = 0
KCH1 241438Z 14005KT 17/15 A3008 RMK A01 T01720151  RH  087%=      5-min Rain = 0
KCH1 241439Z 14005KT 17/15 A3008 RMK A01 T01720151  RH  087%=      5-min Rain = 0
KCH1 241440Z 15006KT 17/15 A3008 RMK A01 T01730151  RH  087%=      5-min Rain = 0
KCH1 241441Z 15004KT 17/15 A3008 RMK A01 T01730152  RH  087%=      5-min Rain = 0
KCH1 241442Z 15005KT 17/15 A3008 RMK A01 T01740152  RH  087%=      5-min Rain = 0
KCH1 241443Z 15006KT 17/15 A3008 RMK A01 T01740151  RH  086%=      5-min Rain = 0
KCH1 241444Z 15006KT 17/15 A3008 RMK A01 T01740151  RH  086%=      5-min Rain = 0
KCH1 241445Z 15005KT 17/15 A3008 RMK A01 T01740151  RH  086%=      5-min Rain = 0
KCH1 241446Z 13005KT 17/15 A3008 RMK A01 T01740151  RH  086%=      5-min Rain = 0
KCH1 241447Z 14006KT 17/15 A3008 RMK A01 T01740150  RH  086%=      5-min Rain = 0
KCH1 241448Z 16005KT 17/15 A3008 RMK A01 T01740150  RH  086%=      5-min Rain = 0
KCH1 241449Z 15005KT 17/15 A3008 RMK A01 T01720149  RH  086%=      5-min Rain = 0
KCH1 241450Z 16006KT 17/15 A3008 RMK A01 T01720150  RH  087%=      5-min Rain = 0
KCH1 241451Z 15006KT 17/15 A3008 RMK A01 T01720150  RH  087%=      5-min Rain = 0
KCH1 241452Z 16006KT 17/15 A3008 RMK A01 T01720150  RH  087%=      5-min Rain = 0
KCH1 241453Z 16005KT 17/15 A3008 RMK A01 T01730151  RH  087%=      5-min Rain = 0
KCH1 241454Z 16005KT 17/15 A3008 RMK A01 T01740152  RH  087%=      5-min Rain = 0
KCH1 241455Z 15004KT 18/15 A3008 RMK A01 T01750152  RH  086%=      5-min Rain = 0
KCH1 241456Z 15004KT 18/16 A3008 RMK A01 T01770155  RH  087%=      5-min Rain = 0
KCH1 241457Z 14005KT 18/15 A3008 RMK A01 T01790152  RH  085%=      5-min Rain = 0
KCH1 241458Z 15004KT 18/15 A3008 RMK A01 T01790154  RH  085%=      5-min Rain = 0
KCH1 241459Z 15005KT 18/15 A3008 RMK A01 T01810154  RH  084%=      5-min Rain = 0
KCH1 241500Z 15005KT 18/15 A3008 RMK A01 T01810153  RH  083%=      5-min Rain = 0
KCH1 241501Z 16004KT 18/15 A3008 RMK A01 T01810153  RH  084%=      5-min Rain = 0
KCH1 241502Z 17004KT 18/15 A3008 RMK A01 T01810153  RH  084%=      5-min Rain = 0
KCH1 241503Z 17005KT 18/15 A3008 RMK A01 T01810153  RH  084%=      5-min Rain = 0
KCH1 241504Z 17005KT 18/15 A3008 RMK A01 T01810154  RH  084%=      5-min Rain = 0
KCH1 241505Z 16004KT 18/15 A3008 RMK A01 T01820153  RH  083%=      5-min Rain = 0
KCH1 241506Z 17003KT 18/15 A3008 RMK A01 T01840154  RH  083%=      5-min Rain = 0
KCH1 241507Z 17003KT 19/16 A3008 RMK A01 T01860157  RH  084%=      5-min Rain = 0
KCH1 241508Z 15004KT 19/16 A3008 RMK A01 T01880156  RH  082%=      5-min Rain = 0
KCH1 241509Z 16004KT 19/15 A3008 RMK A01 T01880154  RH  081%=      5-min Rain = 0
KCH1 241510Z 15006KT 19/16 A3008 RMK A01 T01870155  RH  081%=      5-min Rain = 0
KCH1 241511Z 15003KT 19/15 A3008 RMK A01 T01870154  RH  081%=      5-min Rain = 0
KCH1 241512Z 16004KT 19/16 A3008 RMK A01 T01870155  RH  081%=      5-min Rain = 0
KCH1 241513Z 15006KT 19/16 A3008 RMK A01 T01890156  RH  081%=      5-min Rain = 0
KCH1 241514Z 15005KT 19/16 A3008 RMK A01 T01890155  RH  080%=      5-min Rain = 0
KCH1 241515Z 16004KT 19/15 A3008 RMK A01 T01890154  RH  080%=      5-min Rain = 0
KCH1 241516Z 17002KT 19/15 A3008 RMK A01 T01890154  RH  080%=      5-min Rain = 0
KCH1 241517Z 13004KT 19/16 A3007 RMK A01 T01880156  RH  081%=      5-min Rain = 0
KCH1 241518Z 16005KT 19/16 A3007 RMK A01 T01920158  RH  081%=      5-min Rain = 0
KCH1 241519Z 15005KT 20/16 A3007 RMK A01 T01950158  RH  079%=      5-min Rain = 0
KCH1 241520Z 16005KT 20/16 A3007 RMK A01 T01970160  RH  079%=      5-min Rain = 0
KCH1 241521Z 17006KT 20/16 A3007 RMK A01 T01990159  RH  077%=      5-min Rain = 0
KCH1 241522Z 17005KT 20/16 A3007 RMK A01 T01990157  RH  077%=      5-min Rain = 0
KCH1 241523Z 17005KT 20/16 A3007 RMK A01 T01990160  RH  078%=      5-min Rain = 0
KCH1 241524Z 16007KT 20/16 A3007 RMK A01 T02010159  RH  077%=      5-min Rain = 0
KCH1 241525Z 18006KT 20/16 A3008 RMK A01 T02010157  RH  076%=      5-min Rain = 0
KCH1 241526Z 18006KT 20/16 A3008 RMK A01 T02010157  RH  076%=      5-min Rain = 0
KCH1 241527Z 17005KT 20/16 A3008 RMK A01 T02000158  RH  077%=      5-min Rain = 0
KCH1 241528Z 18004KT 20/16 A3008 RMK A01 T01990158  RH  077%=      5-min Rain = 0
KCH1 241529Z 19005KT 20/16 A3008 RMK A01 T02000157  RH  076%=      5-min Rain = 0
KCH1 241530Z 21007KT 20/16 A3008 RMK A01 T02000159  RH  077%=      5-min Rain = 0
KCH1 241531Z 21006KT 20/16 A3008 RMK A01 T02000157  RH  076%=      5-min Rain = 0
KCH1 241532Z 19006KT 20/16 A3008 RMK A01 T02000158  RH  076%=      5-min Rain = 0
KCH1 241533Z 19005KT 20/16 A3008 RMK A01 T02010157  RH  076%=      5-min Rain = 0
KCH1 241534Z 19007KT 20/16 A3007 RMK A01 T02010157  RH  076%=      5-min Rain = 0
KCH1 241535Z 19007KT 20/16 A3007 RMK A01 T02000157  RH  076%=      5-min Rain = 0
KCH1 241536Z 18007KT 20/16 A3007 RMK A01 T01990156  RH  077%=      5-min Rain = 0
KCH1 241537Z 17008KT 20/16 A3007 RMK A01 T01980157  RH  077%=      5-min Rain = 0
KCH1 241538Z 19008KT 20/16 A3007 RMK A01 T01980156  RH  077%=      5-min Rain = 0
KCH1 241539Z 22007KT 20/16 A3007 RMK A01 T01980157  RH  077%=      5-min Rain = 0
KCH1 241540Z 19007KT 20/16 A3007 RMK A01 T01980156  RH  077%=      5-min Rain = 0
KCH1 241541Z 21007KT 20/16 A3007 RMK A01 T01970156  RH  077%=      5-min Rain = 0
KCH1 241542Z 18005KT 20/16 A3007 RMK A01 T01970156  RH  077%=      5-min Rain = 0
KCH1 241543Z 17007KT 20/16 A3007 RMK A01 T01960156  RH  078%=      5-min Rain = 0
KCH1 241544Z 19006KT 20/16 A3007 RMK A01 T01970157  RH  078%=      5-min Rain = 0
KCH1 241545Z 20007KT 20/16 A3008 RMK A01 T01970157  RH  078%=      5-min Rain = 0
KCH1 241546Z 21006KT 20/16 A3008 RMK A01 T01980157  RH  077%=      5-min Rain = 0
KCH1 241547Z 21009KT 20/16 A3008 RMK A01 T01980157  RH  077%=      5-min Rain = 0
KCH1 241548Z 21007KT 20/16 A3008 RMK A01 T01990156  RH  077%=      5-min Rain = 0
KCH1 241549Z 23006KT 20/16 A3008 RMK A01 T01990157  RH  077%=      5-min Rain = 0
KCH1 241550Z 21004KT 20/16 A3008 RMK A01 T02000159  RH  077%=      5-min Rain = 0
KCH1 241551Z 22005KT 20/16 A3008 RMK A01 T02030160  RH  076%=      5-min Rain = 0
KCH1 241552Z 20004KT 20/16 A3008 RMK A01 T02040158  RH  075%=      5-min Rain = 0
KCH1 241553Z 18005KT 20/16 A3008 RMK A01 T02040159  RH  075%=      5-min Rain = 0
KCH1 241554Z 19007KT 21/16 A3008 RMK A01 T02050159  RH  075%=      5-min Rain = 0
KCH1 241555Z 19007KT 21/16 A3008 RMK A01 T02050157  RH  074%=      5-min Rain = 0
KCH1 241556Z 18007KT 20/16 A3008 RMK A01 T02040158  RH  075%=      5-min Rain = 0
KCH1 241557Z 19006KT 20/16 A3008 RMK A01 T02040158  RH  075%=      5-min Rain = 0
KCH1 241558Z 18006KT 20/16 A3008 RMK A01 T02040158  RH  074%=      5-min Rain = 0
KCH1 241559Z 19007KT 21/16 A3008 RMK A01 T02050159  RH  075%=      5-min Rain = 0
KCH1 241600Z 18005KT 21/16 A3008 RMK A01 T02050157  RH  074%=      5-min Rain = 0
KCH1 241601Z 21007KT 21/16 A3008 RMK A01 T02060159  RH  074%=      5-min Rain = 0
KCH1 241602Z 23005KT 21/16 A3008 RMK A01 T02070156  RH  073%=      5-min Rain = 0
KCH1 241603Z 25005KT 21/16 A3008 RMK A01 T02070158  RH  073%=      5-min Rain = 0
KCH1 241604Z 20004KT 21/16 A3008 RMK A01 T02080159  RH  073%=      5-min Rain = 0
KCH1 241605Z 19005KT 21/16 A3008 RMK A01 T02090159  RH  073%=      5-min Rain = 0
KCH1 241606Z 21005KT 21/16 A3008 RMK A01 T02090159  RH  073%=      5-min Rain = 0
KCH1 241607Z 21005KT 21/16 A3008 RMK A01 T02090158  RH  072%=      5-min Rain = 0
KCH1 241608Z 20005KT 21/16 A3008 RMK A01 T02100160  RH  073%=      5-min Rain = 0
KCH1 241609Z 19007KT 21/16 A3008 RMK A01 T02120158  RH  072%=      5-min Rain = 0
KCH1 241610Z 19007KT 21/16 A3008 RMK A01 T02130158  RH  071%=      5-min Rain = 0
KCH1 241611Z 19008KT 21/16 A3008 RMK A01 T02120156  RH  070%=      5-min Rain = 0
KCH1 241612Z 19010KT 21/16 A3008 RMK A01 T02110156  RH  071%=      5-min Rain = 0
KCH1 241613Z 19009KT 21/16 A3008 RMK A01 T02110156  RH  071%=      5-min Rain = 0
KCH1 241614Z 19009KT 21/16 A3008 RMK A01 T02110157  RH  071%=      5-min Rain = 0
KCH1 241615Z 18008KT 21/16 A3008 RMK A01 T02120159  RH  072%=      5-min Rain = 0
KCH1 241616Z 19008KT 21/16 A3008 RMK A01 T02140158  RH  070%=      5-min Rain = 0
KCH1 241617Z 19008KT 21/16 A3008 RMK A01 T02140158  RH  070%=      5-min Rain = 0
KCH1 241618Z 18008KT 22/16 A3008 RMK A01 T02150158  RH  070%=      5-min Rain = 0
KCH1 241619Z 19010KT 22/16 A3008 RMK A01 T02150158  RH  070%=      5-min Rain = 0
KCH1 241620Z 19011KT 22/16 A3008 RMK A01 T02150158  RH  070%=      5-min Rain = 0
KCH1 241621Z 20008KT 22/16 A3008 RMK A01 T02150158  RH  070%=      5-min Rain = 0
KCH1 241622Z 21005KT 21/16 A3008 RMK A01 T02140159  RH  071%=      5-min Rain = 0
KCH1 241623Z 23005KT 22/16 A3008 RMK A01 T02150159  RH  070%=      5-min Rain = 0
KCH1 241624Z 19007KT 22/16 A3008 RMK A01 T02170161  RH  071%=      5-min Rain = 0
KCH1 241625Z 18010KT 22/16 A3008 RMK A01 T02190160  RH  069%=      5-min Rain = 0
KCH1 241626Z 19012KT 22/16 A3008 RMK A01 T02190159  RH  068%=      5-min Rain = 0
KCH1 241627Z 20007KT 22/16 A3008 RMK A01 T02190159  RH  069%=      5-min Rain = 0
KCH1 241628Z 20006KT 22/16 A3008 RMK A01 T02180158  RH  068%=      5-min Rain = 0
KCH1 241629Z 18008KT 22/16 A3007 RMK A01 T02200160  RH  068%=      5-min Rain = 0
KCH1 241630Z 21011KT 22/16 A3007 RMK A01 T02230158  RH  067%=      5-min Rain = 0
KCH1 241631Z 21008KT 22/16 A3007 RMK A01 T02230158  RH  066%=      5-min Rain = 0
KCH1 241632Z 19009KT 22/16 A3007 RMK A01 T02240158  RH  066%=      5-min Rain = 0
KCH1 241633Z 19008KT 22/16 A3007 RMK A01 T02230157  RH  066%=      5-min Rain = 0
KCH1 241634Z 20009KT 22/16 A3007 RMK A01 T02220158  RH  067%=      5-min Rain = 0
KCH1 241635Z 22007KT 22/16 A3007 RMK A01 T02220158  RH  067%=      5-min Rain = 0
KCH1 241636Z 23008KT 23/16 A3007 RMK A01 T02260155  RH  064%=      5-min Rain = 0
KCH1 241637Z 24007KT 23/15 A3007 RMK A01 T02280153  RH  062%=      5-min Rain = 0
KCH1 241638Z 23007KT 23/15 A3007 RMK A01 T02290152  RH  062%=      5-min Rain = 0
KCH1 241639Z 22008KT 23/15 A3007 RMK A01 T02280152  RH  062%=      5-min Rain = 0
KCH1 241640Z 20007KT 23/16 A3007 RMK A01 T02290155  RH  063%=      5-min Rain = 0
KCH1 241641Z 21007KT 23/15 A3007 RMK A01 T02300153  RH  062%=      5-min Rain = 0
KCH1 241642Z 23008G15KT 23/15 A3007 RMK A01 T02290153  RH  062%=      5-min Rain = 0
KCH1 241643Z 22010KT 23/15 A3007 RMK A01 T02290153  RH  062%=      5-min Rain = 0
KCH1 241644Z 21011KT 23/15 A3007 RMK A01 T02280150  RH  061%=      5-min Rain = 0
KCH1 241645Z 22010KT 23/15 A3007 RMK A01 T02270151  RH  062%=      5-min Rain = 0
KCH1 241646Z 21010KT 23/15 A3007 RMK A01 T02270150  RH  062%=      5-min Rain = 0
KCH1 241647Z 23008KT 23/15 A3007 RMK A01 T02270153  RH  063%=      5-min Rain = 0
KCH1 241648Z 20005KT 23/15 A3007 RMK A01 T02290153  RH  062%=      5-min Rain = 0
KCH1 241649Z 21007KT 23/15 A3007 RMK A01 T02310154  RH  062%=      5-min Rain = 0
KCH1 241650Z 22007G12KT 23/16 A3007 RMK A01 T02330156  RH  062%=      5-min Rain = 0
KCH1 241651Z 22010KT 23/15 A3007 RMK A01 T02340154  RH  061%=      5-min Rain = 0
KCH1 241652Z 21008KT 23/15 A3007 RMK A01 T02320151  RH  060%=      5-min Rain = 0
KCH1 241653Z 22008KT 23/15 A3007 RMK A01 T02290151  RH  061%=      5-min Rain = 0
KCH1 241654Z 22007KT 23/15 A3007 RMK A01 T02270151  RH  062%=      5-min Rain = 0
KCH1 241655Z 21004KT 23/16 A3007 RMK A01 T02290157  RH  064%=      5-min Rain = 0
KCH1 241656Z 22008KT 23/16 A3007 RMK A01 T02340157  RH  062%=      5-min Rain = 0
KCH1 241657Z 25009KT 24/15 A3007 RMK A01 T02370154  RH  060%=      5-min Rain = 0
KCH1 241658Z 25011KT 24/15 A3007 RMK A01 T02350148  RH  058%=      5-min Rain = 0
KCH1 241659Z 25011KT 23/15 A3007 RMK A01 T02320146  RH  058%=      5-min Rain = 0
KCH1 241700Z 24010KT 23/15 A3007 RMK A01 T02310147  RH  059%=      5-min Rain = 0
KCH1 241701Z 24010KT 23/15 A3007 RMK A01 T02310148  RH  060%=      5-min Rain = 0
KCH1 241702Z 24009KT 23/15 A3007 RMK A01 T02320150  RH  060%=      5-min Rain = 0
KCH1 241703Z 23007KT 23/15 A3007 RMK A01 T02330151  RH  060%=      5-min Rain = 0
KCH1 241704Z 22007KT 23/15 A3007 RMK A01 T02340152  RH  060%=      5-min Rain = 0
KCH1 241705Z 23008KT 24/15 A3007 RMK A01 T02370154  RH  060%=      5-min Rain = 0
KCH1 241706Z 22008KT 24/15 A3007 RMK A01 T02390152  RH  058%=      5-min Rain = 0
KCH1 241707Z 24007KT 24/15 A3007 RMK A01 T02370151  RH  059%=      5-min Rain = 0
KCH1 241708Z 24007KT 23/15 A3007 RMK A01 T02340149  RH  059%=      5-min Rain = 0
KCH1 241709Z 22009KT 23/15 A3007 RMK A01 T02330149  RH  059%=      5-min Rain = 0
KCH1 241710Z 22006KT 23/15 A3007 RMK A01 T02330146  RH  058%=      5-min Rain = 0
KCH1 241711Z 23007KT 23/15 A3007 RMK A01 T02320150  RH  060%=      5-min Rain = 0
KCH1 241712Z 23007G14KT 24/15 A3007 RMK A01 T02350153  RH  060%=      5-min Rain = 0
KCH1 241713Z 23009KT 24/15 A3007 RMK A01 T02380153  RH  059%=      5-min Rain = 0
KCH1 241714Z 24010KT 24/15 A3007 RMK A01 T02400153  RH  058%=      5-min Rain = 0
KCH1 241715Z 24008KT 24/15 A3007 RMK A01 T02410153  RH  058%=      5-min Rain = 0
KCH1 241716Z 22008KT 24/15 A3007 RMK A01 T02410152  RH  057%=      5-min Rain = 0
KCH1 241717Z 21009KT 24/15 A3007 RMK A01 T02400151  RH  058%=      5-min Rain = 0
KCH1 241718Z 23008G13KT 24/15 A3007 RMK A01 T02390147  RH  057%=      5-min Rain = 0
KCH1 241719Z 20012G17KT 24/15 A3007 RMK A01 T02390146  RH  056%=      5-min Rain = 0
KCH1 241720Z 23013KT 24/14 A3007 RMK A01 T02390143  RH  055%=      5-min Rain = 0
KCH1 241721Z 22010KT 24/14 A3007 RMK A01 T02390143  RH  055%=      5-min Rain = 0
KCH1 241722Z 22009G14KT 24/14 A3007 RMK A01 T02390143  RH  055%=      5-min Rain = 0
KCH1 241723Z 21008KT 24/14 A3007 RMK A01 T02390144  RH  055%=      5-min Rain = 0
KCH1 241724Z 21010KT 24/15 A3007 RMK A01 T02390147  RH  056%=      5-min Rain = 0
KCH1 241725Z 24009KT 24/15 A3007 RMK A01 T02400147  RH  056%=      5-min Rain = 0
KCH1 241726Z 22010KT 24/15 A3007 RMK A01 T02410148  RH  056%=      5-min Rain = 0
KCH1 241727Z 23008KT 24/15 A3007 RMK A01 T02410145  RH  055%=      5-min Rain = 0
KCH1 241728Z 23007KT 24/15 A3007 RMK A01 T02400147  RH  056%=      5-min Rain = 0
KCH1 241729Z 25006KT 24/15 A3007 RMK A01 T02410148  RH  056%=      5-min Rain = 0
KCH1 241730Z 24007KT 24/15 A3007 RMK A01 T02420147  RH  055%=      5-min Rain = 0
KCH1 241731Z 25011KT 24/14 A3007 RMK A01 T02430144  RH  054%=      5-min Rain = 0
KCH1 241732Z 25010KT 24/14 A3007 RMK A01 T02430141  RH  053%=      5-min Rain = 0
KCH1 241733Z 23008KT 24/14 A3007 RMK A01 T02420142  RH  054%=      5-min Rain = 0
KCH1 241734Z 23008KT 24/14 A3007 RMK A01 T02420142  RH  054%=      5-min Rain = 0
KCH1 241735Z 22007KT 24/14 A3007 RMK A01 T02420141  RH  053%=      5-min Rain = 0
KCH1 241736Z 23005KT 24/14 A3007 RMK A01 T02420144  RH  054%=      5-min Rain = 0
KCH1 241737Z 21005KT 24/14 A3007 RMK A01 T02430144  RH  054%=      5-min Rain = 0
KCH1 241738Z 21005KT 24/14 A3006 RMK A01 T02430143  RH  054%=      5-min Rain = 0
KCH1 241739Z 22006KT 24/14 A3006 RMK A01 T02420143  RH  054%=      5-min Rain = 0
KCH1 241740Z 21009KT 24/14 A3006 RMK A01 T02430140  RH  053%=      5-min Rain = 0
KCH1 241741Z 21008KT 24/14 A3006 RMK A01 T02440142  RH  053%=      5-min Rain = 0
KCH1 241742Z 21008KT 24/14 A3006 RMK A01 T02440143  RH  053%=      5-min Rain = 0
KCH1 241743Z 20008KT 24/14 A3006 RMK A01 T02430141  RH  053%=      5-min Rain = 0
KCH1 241744Z 19008KT 24/14 A3006 RMK A01 T02420143  RH  054%=      5-min Rain = 0
KCH1 241745Z 21006KT 24/15 A3006 RMK A01 T02440147  RH  055%=      5-min Rain = 0
KCH1 241746Z 23006KT 25/15 A3006 RMK A01 T02480147  RH  053%=      5-min Rain = 0
KCH1 241747Z 24005KT 25/15 A3006 RMK A01 T02490148  RH  054%=      5-min Rain = 0
KCH1 241748Z 24004KT 25/15 A3006 RMK A01 T02490148  RH  054%=      5-min Rain = 0
KCH1 241749Z 23007G12KT 25/15 A3006 RMK A01 T02500148  RH  053%=      5-min Rain = 0
KCH1 241750Z 25011KT 25/14 A3006 RMK A01 T02510144  RH  052%=      5-min Rain = 0
KCH1 241751Z 26008KT 25/14 A3006 RMK A01 T02480142  RH  052%=      5-min Rain = 0
KCH1 241752Z 26005KT 25/14 A3006 RMK A01 T02460142  RH  052%=      5-min Rain = 0
KCH1 241753Z 24004KT 25/14 A3006 RMK A01 T02460141  RH  052%=      5-min Rain = 0
KCH1 241754Z 21005KT 25/14 A3006 RMK A01 T02480143  RH  052%=      5-min Rain = 0
KCH1 241755Z 21008KT 25/14 A3006 RMK A01 T02510137  RH  049%=      5-min Rain = 0
KCH1 241756Z 22009KT 25/13 A3006 RMK A01 T02520130  RH  047%=      5-min Rain = 0
KCH1 241757Z 23009KT 25/13 A3006 RMK A01 T02500130  RH  047%=      5-min Rain = 0
KCH1 241758Z 23008KT 25/13 A3006 RMK A01 T02500132  RH  048%=      5-min Rain = 0
KCH1 241759Z 22005KT 25/13 A3006 RMK A01 T02490133  RH  048%=      5-min Rain = 0
KCH1 241800Z 23005KT 25/14 A3006 RMK A01 T02490135  RH  049%=      5-min Rain = 0
KCH1 241801Z 22005KT 25/14 A3006 RMK A01 T02490135  RH  049%=      5-min Rain = 0
KCH1 241802Z 23004KT 25/13 A3006 RMK A01 T02490131  RH  048%=      5-min Rain = 0
KCH1 241803Z 23006KT 25/13 A3006 RMK A01 T02500133  RH  048%=      5-min Rain = 0
KCH1 241804Z 25008KT 25/13 A3006 RMK A01 T02520131  RH  047%=      5-min Rain = 0
KCH1 241805Z 27006KT 25/13 A3006 RMK A01 T02520132  RH  047%=      5-min Rain = 0
KCH1 241806Z 28006KT 25/13 A3006 RMK A01 T02540129  RH  046%=      5-min Rain = 0
KCH1 241807Z 26006KT 25/13 A3006 RMK A01 T02540128  RH  045%=      5-min Rain = 0
KCH1 241808Z 25008KT 25/13 A3006 RMK A01 T02530127  RH  045%=      5-min Rain = 0
KCH1 241809Z 24007KT 25/13 A3006 RMK A01 T02520125  RH  045%=      5-min Rain = 0
KCH1 241810Z 23008KT 25/12 A3006 RMK A01 T02530121  RH  044%=      5-min Rain = 0
KCH1 241811Z 26008KT 25/12 A3006 RMK A01 T02530122  RH  044%=      5-min Rain = 0
KCH1 241812Z 26007KT 25/12 A3006 RMK A01 T02520117  RH  043%=      5-min Rain = 0
KCH1 241813Z 28004KT 25/12 A3005 RMK A01 T02490118  RH  044%=      5-min Rain = 0
KCH1 241814Z 25006KT 25/12 A3005 RMK A01 T02490122  RH  045%=      5-min Rain = 0
KCH1 241815Z 24007KT 25/13 A3005 RMK A01 T02530126  RH  045%=      5-min Rain = 0
KCH1 241816Z 25007KT 26/12 A3005 RMK A01 T02550123  RH  044%=      5-min Rain = 0
KCH1 241817Z 23009KT 26/12 A3005 RMK A01 T02570124  RH  044%=      5-min Rain = 0
KCH1 241818Z 21010KT 26/12 A3005 RMK A01 T02580118  RH  042%=      5-min Rain = 0
KCH1 241819Z 22009KT 26/11 A3005 RMK A01 T02570113  RH  041%=      5-min Rain = 0
KCH1 241820Z 22010KT 26/12 A3005 RMK A01 T02570117  RH  042%=      5-min Rain = 0
KCH1 241821Z 22009KT 26/12 A3005 RMK A01 T02560115  RH  041%=      5-min Rain = 0
KCH1 241822Z 23008KT 26/11 A3005 RMK A01 T02550110  RH  040%=      5-min Rain = 0
KCH1 241823Z 23007KT 25/11 A3005 RMK A01 T02540111  RH  041%=      5-min Rain = 0
KCH1 241824Z 21008KT 25/11 A3005 RMK A01 T02540113  RH  041%=      5-min Rain = 0
KCH1 241825Z 23008KT 25/12 A3005 RMK A01 T02530120  RH  043%=      5-min Rain = 0
KCH1 241826Z 24007KT 25/12 A3005 RMK A01 T02520121  RH  044%=      5-min Rain = 0
KCH1 241827Z 21008KT 25/12 A3005 RMK A01 T02500121  RH  044%=      5-min Rain = 0
KCH1 241828Z 20006KT 25/12 A3005 RMK A01 T02500120  RH  044%=      5-min Rain = 0
KCH1 241829Z 20004G9KT 25/12 A3005 RMK A01 T02510120  RH  044%=      5-min Rain = 0
KCH1 241830Z 20009KT 25/12 A3005 RMK A01 T02530117  RH  043%=      5-min Rain = 0
KCH1 241831Z 25007KT 26/12 A3005 RMK A01 T02560124  RH  044%=      5-min Rain = 0
KCH1 241832Z 25008KT 26/12 A3005 RMK A01 T02600123  RH  043%=      5-min Rain = 0
KCH1 241833Z 21008KT 26/12 A3005 RMK A01 T02590122  RH  042%=      5-min Rain = 0
KCH1 241834Z 21008KT 26/12 A3004 RMK A01 T02580122  RH  043%=      5-min Rain = 0
KCH1 241835Z 25006KT 26/12 A3004 RMK A01 T02570115  RH  041%=      5-min Rain = 0
KCH1 241836Z 25003KT 26/12 A3004 RMK A01 T02560116  RH  042%=      5-min Rain = 0
KCH1 241837Z 22007KT 26/12 A3004 RMK A01 T02590119  RH  042%=      5-min Rain = 0
KCH1 241838Z 22007KT 26/12 A3004 RMK A01 T02600115  RH  040%=      5-min Rain = 0
KCH1 241839Z 21008KT 26/12 A3004 RMK A01 T02610117  RH  041%=      5-min Rain = 0
KCH1 241840Z 20008KT 26/12 A3004 RMK A01 T02600117  RH  041%=      5-min Rain = 0
KCH1 241841Z 22006KT 26/12 A3004 RMK A01 T02590121  RH  042%=      5-min Rain = 0
KCH1 241842Z 23006KT 26/12 A3004 RMK A01 T02590118  RH  042%=      5-min Rain = 0
KCH1 241843Z 23005KT 26/11 A3004 RMK A01 T02590114  RH  040%=      5-min Rain = 0
KCH1 241844Z 26005KT 26/11 A3004 RMK A01 T02590108  RH  039%=      5-min Rain = 0
KCH1 241845Z 24006G11KT 26/11 A3004 RMK A01 T02610110  RH  039%=      5-min Rain = 0
KCH1 241846Z 24010KT 26/10 A3004 RMK A01 T02630102  RH  036%=      5-min Rain = 0
KCH1 241847Z 24009KT 26/09 A3004 RMK A01 T02630092  RH  034%=      5-min Rain = 0
KCH1 241848Z 25007KT 26/09 A3004 RMK A01 T02610092  RH  034%=      5-min Rain = 0
KCH1 241849Z 25007KT 26/10 A3004 RMK A01 T02610096  RH  035%=      5-min Rain = 0
KCH1 241850Z 23006KT 26/09 A3004 RMK A01 T02620089  RH  034%=      5-min Rain = 0
KCH1 241851Z 21008KT 26/10 A3004 RMK A01 T02620099  RH  036%=      5-min Rain = 0
KCH1 241852Z 20007KT 26/09 A3004 RMK A01 T02620093  RH  034%=      5-min Rain = 0
KCH1 241853Z 21007G12KT 26/09 A3004 RMK A01 T02630089  RH  033%=      5-min Rain = 0
KCH1 241854Z 24007KT 26/09 A3004 RMK A01 T02640092  RH  034%=      5-min Rain = 0
KCH1 241855Z 22007KT 27/09 A3004 RMK A01 T02650085  RH  032%=      5-min Rain = 0
KCH1 241856Z 21006KT 26/08 A3003 RMK A01 T02640081  RH  031%=      5-min Rain = 0
KCH1 241857Z 21010KT 27/09 A3003 RMK A01 T02650087  RH  033%=      5-min Rain = 0
KCH1 241858Z 21009KT 27/08 A3003 RMK A01 T02670083  RH  031%=      5-min Rain = 0
KCH1 241859Z 21006KT 27/09 A3003 RMK A01 T02670085  RH  032%=      5-min Rain = 0
KCH1 241900Z 22005KT 27/08 A3003 RMK A01 T02690080  RH  030%=      5-min Rain = 0
KCH1 241901Z 24008KT 27/08 A3003 RMK A01 T02720081  RH  030%=      5-min Rain = 0
KCH1 241902Z 26007KT 27/07 A3003 RMK A01 T02730066  RH  027%=      5-min Rain = 0
KCH1 241903Z 27007KT 27/06 A3003 RMK A01 T02740060  RH  026%=      5-min Rain = 0
KCH1 241904Z 25009KT 28/07 A3003 RMK A01 T02760073  RH  028%=      5-min Rain = 0
KCH1 241905Z 25008KT 27/08 A3003 RMK A01 T02720078  RH  029%=      5-min Rain = 0
KCH1 241906Z 27007KT 27/08 A3003 RMK A01 T02680084  RH  031%=      5-min Rain = 0
KCH1 241907Z 27009KT 27/08 A3003 RMK A01 T02680077  RH  030%=      5-min Rain = 0
KCH1 241908Z 27009KT 27/07 A3003 RMK A01 T02680068  RH  028%=      5-min Rain = 0
KCH1 241909Z 29006KT 27/07 A3003 RMK A01 T02680068  RH  028%=      5-min Rain = 0
KCH1 241910Z 26008KT 27/08 A3003 RMK A01 T02690080  RH  030%=      5-min Rain = 0
KCH1 241911Z 22007KT 27/08 A3003 RMK A01 T02720082  RH  030%=      5-min Rain = 0
KCH1 241912Z 21006KT 27/08 A3003 RMK A01 T02720075  RH  029%=      5-min Rain = 0
KCH1 241913Z 22007KT 27/08 A3003 RMK A01 T02710080  RH  030%=      5-min Rain = 0
KCH1 241914Z 21006KT 27/08 A3003 RMK A01 T02690076  RH  029%=      5-min Rain = 0
KCH1 241915Z 22005KT 27/08 A3003 RMK A01 T02690080  RH  030%=      5-min Rain = 0
KCH1 241916Z 20006KT 27/09 A3003 RMK A01 T02710086  RH  031%=      5-min Rain = 0
KCH1 241917Z 22007KT 27/09 A3003 RMK A01 T02730090  RH  032%=      5-min Rain = 0
KCH1 241918Z 22006KT 27/09 A3002 RMK A01 T02730091  RH  032%=      5-min Rain = 0
KCH1 241919Z 22006KT 27/09 A3002 RMK A01 T02730092  RH  032%=      5-min Rain = 0
KCH1 241920Z 24011KT 27/08 A3002 RMK A01 T02740084  RH  030%=      5-min Rain = 0
KCH1 241921Z 23010KT 27/08 A3002 RMK A01 T02730076  RH  029%=      5-min Rain = 0
KCH1 241922Z 23008KT 27/08 A3002 RMK A01 T02730082  RH  030%=      5-min Rain = 0
KCH1 241923Z 23007KT 27/08 A3002 RMK A01 T02720082  RH  030%=      5-min Rain = 0
KCH1 241924Z 24008G13KT 27/09 A3002 RMK A01 T02700087  RH  031%=      5-min Rain = 0
KCH1 241925Z 23010KT 27/09 A3002 RMK A01 T02690092  RH  033%=      5-min Rain = 0
KCH1 241926Z 23006KT 27/09 A3002 RMK A01 T02680092  RH  033%=      5-min Rain = 0
KCH1 241927Z 27005KT 27/10 A3002 RMK A01 T02680099  RH  035%=      5-min Rain = 0
KCH1 241928Z 27006KT 27/09 A3002 RMK A01 T02700092  RH  033%=      5-min Rain = 0
KCH1 241929Z 27004KT 27/09 A3002 RMK A01 T02690093  RH  033%=      5-min Rain = 0
KCH1 241930Z 26007G12KT 27/10 A3002 RMK A01 T02710100  RH  034%=      5-min Rain = 0
KCH1 241931Z 24008KT 28/10 A3002 RMK A01 T02750101  RH  034%=      5-min Rain = 0
KCH1 241932Z 22006KT 28/11 A3002 RMK A01 T02790107  RH  034%=      5-min Rain = 0
KCH1 241933Z 26005KT 28/10 A3002 RMK A01 T02810101  RH  032%=      5-min Rain = 0
KCH1 241934Z 26005KT 28/09 A3002 RMK A01 T02810093  RH  031%=      5-min Rain = 0
KCH1 241935Z 28005KT 28/09 A3002 RMK A01 T02810094  RH  031%=      5-min Rain = 0
KCH1 241936Z 27005G11KT 28/10 A3002 RMK A01 T02820095  RH  031%=      5-min Rain = 0
KCH1 241937Z 25009KT 28/08 A3002 RMK A01 T02830083  RH  028%=      5-min Rain = 0
KCH1 241938Z 27011KT 28/06 A3002 RMK A01 T02830064  RH  025%=      5-min Rain = 0
KCH1 241939Z 27008KT 28/06 A3002 RMK A01 T02800063  RH  025%=      5-min Rain = 0
KCH1 241940Z 26008KT 28/06 A3002 RMK A01 T02800063  RH  025%=      5-min Rain = 0
KCH1 241941Z 27009KT 28/07 A3002 RMK A01 T02790071  RH  027%=      5-min Rain = 0
KCH1 241942Z 26011KT 28/07 A3002 RMK A01 T02770073  RH  028%=      5-min Rain = 0
KCH1 241943Z 26008KT 28/08 A3002 RMK A01 T02750075  RH  028%=      5-min Rain = 0
KCH1 241944Z 27010KT 28/08 A3002 RMK A01 T02750077  RH  029%=      5-min Rain = 0
KCH1 241945Z 25006KT 27/07 A3002 RMK A01 T02740070  RH  027%=      5-min Rain = 0
KCH1 241946Z 24007KT 27/08 A3002 RMK A01 T02730083  RH  030%=      5-min Rain = 0
KCH1 241947Z 24007KT 28/08 A3002 RMK A01 T02760076  RH  028%=      5-min Rain = 0
KCH1 241948Z 26005KT 28/08 A3002 RMK A01 T02760077  RH  028%=      5-min Rain = 0
KCH1 241949Z 24005KT 28/08 A3002 RMK A01 T02760077  RH  028%=      5-min Rain = 0
KCH1 241950Z 25006KT 28/08 A3002 RMK A01 T02770075  RH  028%=      5-min Rain = 0
KCH1 241951Z 27007KT 28/07 A3001 RMK A01 T02790073  RH  027%=      5-min Rain = 0
KCH1 241952Z 27008G13KT 28/06 A3001 RMK A01 T02810062  RH  025%=      5-min Rain = 0
KCH1 241953Z 26012G17KT 28/07 A3001 RMK A01 T02810067  RH  026%=      5-min Rain = 0
KCH1 241954Z 26013KT 28/06 A3001 RMK A01 T02820057  RH  024%=      5-min Rain = 0
KCH1 241955Z 27011KT 28/05 A3001 RMK A01 T02780050  RH  023%=      5-min Rain = 0
KCH1 241956Z 28010KT 28/05 A3001 RMK A01 T02760049  RH  023%=      5-min Rain = 0
KCH1 241957Z 27006KT 27/06 A3001 RMK A01 T02740057  RH  025%=      5-min Rain = 0
KCH1 241958Z 24007KT 28/06 A3001 RMK A01 T02750061  RH  026%=      5-min Rain = 0
KCH1 241959Z 24009KT 28/07 A3001 RMK A01 T02780067  RH  026%=      5-min Rain = 0
KCH1 242000Z 23011KT 28/06 A3001 RMK A01 T02790056  RH  024%=      5-min Rain = 0
KCH1 242001Z 24013G18KT 28/06 A3001 RMK A01 T02790058  RH  025%=      5-min Rain = 0
KCH1 242002Z 24013G18KT 28/07 A3001 RMK A01 T02770065  RH  026%=      5-min Rain = 0
KCH1 242003Z 25014KT 28/07 A3001 RMK A01 T02760066  RH  026%=      5-min Rain = 0
KCH1 242004Z 26013KT 28/07 A3001 RMK A01 T02760065  RH  026%=      5-min Rain = 0
KCH1 242005Z 25012KT 28/06 A3001 RMK A01 T02750062  RH  026%=      5-min Rain = 0
KCH1 242006Z 25010KT 27/06 A3001 RMK A01 T02740059  RH  025%=      5-min Rain = 0
KCH1 242007Z 24009KT 27/06 A3001 RMK A01 T02720061  RH  026%=      5-min Rain = 0
KCH1 242008Z 24005KT 27/07 A3001 RMK A01 T02720070  RH  028%=      5-min Rain = 0
KCH1 242009Z 23008KT 27/07 A3001 RMK A01 T02740072  RH  028%=      5-min Rain = 0
KCH1 242010Z 23008KT 27/08 A3001 RMK A01 T02740077  RH  029%=      5-min Rain = 0
KCH1 242011Z 21008KT 28/08 A3001 RMK A01 T02750078  RH  029%=      5-min Rain = 0
KCH1 242012Z 22009KT 28/08 A3001 RMK A01 T02780084  RH  030%=      5-min Rain = 0
KCH1 242013Z 22010KT 28/08 A3001 RMK A01 T02790082  RH  029%=      5-min Rain = 0
KCH1 242014Z 23010G15KT 28/09 A3001 RMK A01 T02790086  RH  030%=      5-min Rain = 0
KCH1 242015Z 23010KT 28/08 A3001 RMK A01 T02790084  RH  029%=      5-min Rain = 0
KCH1 242016Z 22009KT 28/08 A3001 RMK A01 T02790083  RH  029%=      5-min Rain = 0
KCH1 242017Z 22007KT 28/08 A3001 RMK A01 T02770081  RH  029%=      5-min Rain = 0
KCH1 242018Z 22007KT 28/08 A3001 RMK A01 T02770079  RH  029%=      5-min Rain = 0
KCH1 242019Z 22004KT 28/07 A3001 RMK A01 T02760074  RH  028%=      5-min Rain = 0
KCH1 242020Z 21003KT 27/08 A3001 RMK A01 T02740078  RH  029%=      5-min Rain = 0
KCH1 242021Z 24005KT 28/09 A30 RMK A01 T02750086  RH  030%=      5-min Rain = 0
KCH1 242022Z 28007KT 28/08 A30 RMK A01 T02780084  RH  029%=      5-min Rain = 0
KCH1 242023Z 25007KT 28/09 A30 RMK A01 T02790086  RH  030%=      5-min Rain = 0
KCH1 242024Z 24006KT 28/08 A30 RMK A01 T02800084  RH  029%=      5-min Rain = 0
KCH1 242025Z 23008KT 28/09 A30 RMK A01 T02800088  RH  030%=      5-min Rain = 0
KCH1 242026Z 24008KT 28/09 A30 RMK A01 T02810090  RH  030%=      5-min Rain = 0
KCH1 242027Z 25007KT 28/08 A30 RMK A01 T02820078  RH  028%=      5-min Rain = 0
KCH1 242028Z 24005KT 28/08 A30 RMK A01 T02810081  RH  028%=      5-min Rain = 0
KCH1 242029Z 25004KT 28/09 A30 RMK A01 T02810086  RH  029%=      5-min Rain = 0
KCH1 242030Z 22010G15KT 28/08 A30 RMK A01 T02820081  RH  028%=      5-min Rain = 0
KCH1 242031Z 21013KT 28/08 A2999 RMK A01 T02800080  RH  028%=      5-min Rain = 0
KCH1 242032Z 22009KT 28/08 A2999 RMK A01 T02780082  RH  029%=      5-min Rain = 0
KCH1 242033Z 23009KT 28/09 A30 RMK A01 T02790085  RH  030%=      5-min Rain = 0
KCH1 242034Z 23006KT 28/08 A30 RMK A01 T02810084  RH  029%=      5-min Rain = 0
KCH1 242035Z 20010KT 28/08 A2999 RMK A01 T02810083  RH  029%=      5-min Rain = 0
KCH1 242036Z 22011G16KT 28/08 A2999 RMK A01 T02810081  RH  028%=      5-min Rain = 0
KCH1 242037Z 21011KT 28/08 A2999 RMK A01 T02800079  RH  028%=      5-min Rain = 0
KCH1 242038Z 21009KT 28/08 A2999 RMK A01 T02780078  RH  028%=      5-min Rain = 0
KCH1 242039Z 23006KT 28/08 A2999 RMK A01 T02770084  RH  030%=      5-min Rain = 0
KCH1 242040Z 24007KT 28/09 A2999 RMK A01 T02810090  RH  030%=      5-min Rain = 0
KCH1 242041Z 22007KT 28/09 A2999 RMK A01 T02830087  RH  029%=      5-min Rain = 0
KCH1 242042Z 22009KT 28/09 A2999 RMK A01 T02830085  RH  029%=      5-min Rain = 0
KCH1 242043Z 25008KT 28/08 A2999 RMK A01 T02800082  RH  029%=      5-min Rain = 0
KCH1 242044Z 24004KT 28/08 A2999 RMK A01 T02780082  RH  029%=      5-min Rain = 0
KCH1 242045Z 21007KT 28/09 A2999 RMK A01 T02780086  RH  030%=      5-min Rain = 0
KCH1 242046Z 23004KT 28/09 A2999 RMK A01 T02790085  RH  029%=      5-min Rain = 0
KCH1 242047Z 21003KT 28/09 A2999 RMK A01 T02800088  RH  030%=      5-min Rain = 0
KCH1 242048Z 23005KT 28/09 A2999 RMK A01 T02810087  RH  030%=      5-min Rain = 0
KCH1 242049Z 27002KT 28/08 A2999 RMK A01 T02810080  RH  028%=      5-min Rain = 0
KCH1 242050Z 28003KT 28/08 A2999 RMK A01 T02810084  RH  029%=      5-min Rain = 0
KCH1 242051Z 23005KT 28/09 A2999 RMK A01 T02810090  RH  030%=      5-min Rain = 0
KCH1 242052Z 22005KT 29/10 A2999 RMK A01 T02850096  RH  031%=      5-min Rain = 0
KCH1 242053Z 23007KT 29/09 A2999 RMK A01 T02880085  RH  028%=      5-min Rain = 0
KCH1 242054Z 23009KT 29/08 A2999 RMK A01 T02870081  RH  027%=      5-min Rain = 0
KCH1 242055Z 22008KT 29/08 A2999 RMK A01 T02850076  RH  027%=      5-min Rain = 0
KCH1 242056Z 24010G15KT 28/07 A2999 RMK A01 T02840074  RH  027%=      5-min Rain = 0
KCH1 242057Z 24011KT 28/07 A2999 RMK A01 T02830074  RH  027%=      5-min Rain = 0
KCH1 242058Z 25006KT 28/08 A2999 RMK A01 T02820080  RH  028%=      5-min Rain = 0
KCH1 242059Z 24008KT 28/07 A2999 RMK A01 T02830073  RH  027%=      5-min Rain = 0
KCH1 242100Z 24008KT 28/07 A2999 RMK A01 T02820070  RH  026%=      5-min Rain = 0
KCH1 242101Z 23010KT 28/08 A2999 RMK A01 T02820075  RH  027%=      5-min Rain = 0
KCH1 242102Z 24009KT 28/07 A2999 RMK A01 T02820070  RH  026%=      5-min Rain = 0
KCH1 242103Z 23008KT 28/07 A2999 RMK A01 T02820072  RH  027%=      5-min Rain = 0
KCH1 242104Z 23007KT 28/07 A2998 RMK A01 T02820074  RH  027%=      5-min Rain = 0
KCH1 242105Z 23006KT 28/07 A2998 RMK A01 T02820074  RH  027%=      5-min Rain = 0
KCH1 242106Z 25010KT 28/07 A2998 RMK A01 T02820072  RH  027%=      5-min Rain = 0
KCH1 242107Z 24010KT 28/07 A2998 RMK A01 T02820073  RH  027%=      5-min Rain = 0
KCH1 242108Z 21010KT 28/07 A2998 RMK A01 T02820073  RH  027%=      5-min Rain = 0
KCH1 242109Z 23011KT 28/07 A2998 RMK A01 T02830073  RH  027%=      5-min Rain = 0
KCH1 242110Z 23012KT 28/07 A2998 RMK A01 T02830070  RH  026%=      5-min Rain = 0
KCH1 242111Z 24010KT 28/07 A2998 RMK A01 T02830065  RH  025%=      5-min Rain = 0
KCH1 242112Z 24010KT 28/07 A2998 RMK A01 T02820066  RH  026%=      5-min Rain = 0
KCH1 242113Z 24010KT 28/06 A2998 RMK A01 T02820063  RH  025%=      5-min Rain = 0
KCH1 242114Z 25006KT 28/07 A2998 RMK A01 T02820068  RH  026%=      5-min Rain = 0
KCH1 242115Z 23005KT 28/08 A2998 RMK A01 T02840081  RH  028%=      5-min Rain = 0
KCH1 242116Z 22007KT 29/07 A2998 RMK A01 T02870072  RH  026%=      5-min Rain = 0
KCH1 242117Z 24006KT 29/07 A2998 RMK A01 T02880074  RH  026%=      5-min Rain = 0
KCH1 242118Z 25010KT 29/07 A2998 RMK A01 T02900071  RH  025%=      5-min Rain = 0
KCH1 242119Z 24012G17KT 29/07 A2998 RMK A01 T02890066  RH  024%=      5-min Rain = 0
KCH1 242120Z 25012KT 29/07 A2998 RMK A01 T02870066  RH  025%=      5-min Rain = 0
KCH1 242121Z 25011KT 29/07 A2998 RMK A01 T02860067  RH  025%=      5-min Rain = 0
KCH1 242122Z 24009G14KT 29/07 A2998 RMK A01 T02860069  RH  025%=      5-min Rain = 0
KCH1 242123Z 24014KT 29/07 A2998 RMK A01 T02870065  RH  025%=      5-min Rain = 0
KCH1 242124Z 22013G18KT 29/06 A2998 RMK A01 T02850064  RH  025%=      5-min Rain = 0
KCH1 242125Z 23009G14KT 28/07 A2998 RMK A01 T02840065  RH  025%=      5-min Rain = 0
KCH1 242126Z 22008KT 28/07 A2998 RMK A01 T02840066  RH  025%=      5-min Rain = 0
KCH1 242127Z 24006KT 29/06 A2998 RMK A01 T02850063  RH  025%=      5-min Rain = 0
KCH1 242128Z 26008KT 29/07 A2998 RMK A01 T02850066  RH  025%=      5-min Rain = 0
KCH1 242129Z 27006KT 28/06 A2998 RMK A01 T02840063  RH  025%=      5-min Rain = 0
KCH1 242130Z 27007KT 28/07 A2998 RMK A01 T02840066  RH  025%=      5-min Rain = 0
KCH1 242131Z 28006KT 28/06 A2998 RMK A01 T02830063  RH  025%=      5-min Rain = 0
KCH1 242132Z 25009KT 28/07 A2998 RMK A01 T02840070  RH  026%=      5-min Rain = 0
KCH1 242133Z 25012G17KT 29/07 A2998 RMK A01 T02850068  RH  025%=      5-min Rain = 0
KCH1 242134Z 26009KT 29/07 A2998 RMK A01 T02860070  RH  026%=      5-min Rain = 0
KCH1 242135Z 26009KT 29/07 A2998 RMK A01 T02880072  RH  026%=      5-min Rain = 0
KCH1 242136Z 25007KT 29/07 A2998 RMK A01 T02890069  RH  025%=      5-min Rain = 0
KCH1 242137Z 26006G11KT 29/07 A2998 RMK A01 T02890069  RH  025%=      5-min Rain = 0
KCH1 242138Z 26006KT 29/07 A2997 RMK A01 T02900074  RH  026%=      5-min Rain = 0
KCH1 242139Z 25008G13KT 29/07 A2997 RMK A01 T02910072  RH  025%=      5-min Rain = 0
KCH1 242140Z 24013G18KT 29/07 A2997 RMK A01 T02910069  RH  025%=      5-min Rain = 0
KCH1 242141Z 25008G14KT 29/07 A2997 RMK A01 T02880070  RH  025%=      5-min Rain = 0
KCH1 242142Z 26010KT 29/07 A2997 RMK A01 T02870072  RH  026%=      5-min Rain = 0
KCH1 242143Z 26011KT 29/07 A2997 RMK A01 T02870068  RH  025%=      5-min Rain = 0
KCH1 242144Z 26013KT 29/07 A2997 RMK A01 T02870070  RH  025%=      5-min Rain = 0
KCH1 242145Z 26014KT 29/07 A2997 RMK A01 T02860070  RH  026%=      5-min Rain = 0
KCH1 242146Z 26011KT 28/07 A2997 RMK A01 T02840067  RH  025%=      5-min Rain = 0
KCH1 242147Z 26012KT 28/07 A2997 RMK A01 T02830070  RH  026%=      5-min Rain = 0
KCH1 242148Z 24012KT 28/07 A2997 RMK A01 T02830071  RH  026%=      5-min Rain = 0
KCH1 242149Z 25013KT 28/07 A2997 RMK A01 T02830070  RH  026%=      5-min Rain = 0
KCH1 242150Z 24012KT 28/07 A2997 RMK A01 T02820070  RH  026%=      5-min Rain = 0
KCH1 242151Z 23010KT 28/07 A2997 RMK A01 T02810068  RH  026%=      5-min Rain = 0
KCH1 242152Z 25007KT 28/07 A2997 RMK A01 T02800071  RH  027%=      5-min Rain = 0
KCH1 242153Z 28006KT 28/07 A2997 RMK A01 T02790073  RH  027%=      5-min Rain = 0
KCH1 242154Z 29006KT 28/07 A2997 RMK A01 T02800072  RH  027%=      5-min Rain = 0
KCH1 242155Z 30006KT 28/08 A2997 RMK A01 T02820075  RH  027%=      5-min Rain = 0
KCH1 242156Z 30007KT 28/07 A2997 RMK A01 T02840070  RH  026%=      5-min Rain = 0
KCH1 242157Z 30006KT 29/07 A2997 RMK A01 T02850071  RH  026%=      5-min Rain = 0
KCH1 242158Z 30006KT 29/07 A2997 RMK A01 T02850070  RH  026%=      5-min Rain = 0
KCH1 242159Z 30007KT 29/07 A2997 RMK A01 T02860073  RH  026%=      5-min Rain = 0
KCH1 242200Z 27007KT 29/07 A2997 RMK A01 T02860074  RH  026%=      5-min Rain = 0
KCH1 242201Z 26007KT 29/07 A2997 RMK A01 T02870073  RH  026%=      5-min Rain = 0
KCH1 242202Z 26004KT 29/07 A2997 RMK A01 T02860069  RH  025%=      5-min Rain = 0
KCH1 242203Z 23005KT 29/08 A2997 RMK A01 T02850076  RH  027%=      5-min Rain = 0
KCH1 242204Z 23006KT 29/07 A2997 RMK A01 T02860069  RH  025%=      5-min Rain = 0
KCH1 242205Z 23006KT 29/07 A2997 RMK A01 T02860074  RH  026%=      5-min Rain = 0
KCH1 242206Z 23007KT 29/07 A2997 RMK A01 T02870070  RH  025%=      5-min Rain = 0
KCH1 242207Z 24007KT 29/07 A2997 RMK A01 T02870069  RH  025%=      5-min Rain = 0
KCH1 242208Z 26007KT 29/07 A2997 RMK A01 T02870071  RH  026%=      5-min Rain = 0
KCH1 242209Z 24009KT 29/07 A2997 RMK A01 T02860071  RH  026%=      5-min Rain = 0
KCH1 242210Z 22011KT 29/07 A2997 RMK A01 T02870069  RH  025%=      5-min Rain = 0
KCH1 242211Z 21012KT 29/07 A2997 RMK A01 T02870065  RH  025%=      5-min Rain = 0
KCH1 242212Z 22008KT 29/07 A2997 RMK A01 T02860067  RH  025%=      5-min Rain = 0
KCH1 242213Z 23005KT 29/07 A2997 RMK A01 T02870070  RH  026%=      5-min Rain = 0
KCH1 242214Z 24006KT 29/07 A2997 RMK A01 T02880070  RH  025%=      5-min Rain = 0
KCH1 242215Z 23010KT 29/07 A2997 RMK A01 T02890066  RH  024%=      5-min Rain = 0
KCH1 242216Z 24007KT 29/06 A2997 RMK A01 T02870063  RH  024%=      5-min Rain = 0
KCH1 242217Z 23006KT 29/07 A2997 RMK A01 T02860065  RH  025%=      5-min Rain = 0
KCH1 242218Z 21008KT 29/07 A2997 RMK A01 T02860066  RH  025%=      5-min Rain = 0
KCH1 242219Z 22007KT 29/07 A2997 RMK A01 T02860067  RH  025%=      5-min Rain = 0
KCH1 242220Z 21008KT 29/07 A2996 RMK A01 T02860066  RH  025%=      5-min Rain = 0
KCH1 242221Z 23004KT 29/07 A2996 RMK A01 T02860067  RH  025%=      5-min Rain = 0
KCH1 242222Z 24006KT 29/06 A2996 RMK A01 T02870064  RH  024%=      5-min Rain = 0
KCH1 242223Z 23007KT 29/07 A2996 RMK A01 T02890073  RH  026%=      5-min Rain = 0
KCH1 242224Z 23008KT 29/07 A2996 RMK A01 T02900072  RH  025%=      5-min Rain = 0
KCH1 242225Z 25007G12KT 29/07 A2996 RMK A01 T02910071  RH  025%=      5-min Rain = 0
KCH1 242226Z 23012KT 29/07 A2996 RMK A01 T02920069  RH  025%=      5-min Rain = 0
KCH1 242227Z 22013KT 29/06 A2996 RMK A01 T02910062  RH  024%=      5-min Rain = 0
KCH1 242228Z 22014KT 29/06 A2996 RMK A01 T02890059  RH  023%=      5-min Rain = 0
KCH1 242229Z 24013KT 29/06 A2996 RMK A01 T02880063  RH  024%=      5-min Rain = 0
KCH1 242230Z 23013KT 29/06 A2996 RMK A01 T02870060  RH  024%=      5-min Rain = 0
KCH1 242231Z 23010KT 29/06 A2996 RMK A01 T02860059  RH  024%=      5-min Rain = 0
KCH1 242232Z 21011KT 29/06 A2996 RMK A01 T02860059  RH  024%=      5-min Rain = 0
KCH1 242233Z 21009G14KT 29/06 A2996 RMK A01 T02850055  RH  023%=      5-min Rain = 0
KCH1 242234Z 23007KT 28/05 A2996 RMK A01 T02840053  RH  023%=      5-min Rain = 0
KCH1 242235Z 26005KT 28/06 A2996 RMK A01 T02840059  RH  024%=      5-min Rain = 0
KCH1 242236Z 26006KT 29/06 A2996 RMK A01 T02860061  RH  024%=      5-min Rain = 0
KCH1 242237Z 26007KT 29/06 A2996 RMK A01 T02870063  RH  024%=      5-min Rain = 0
KCH1 242238Z 27007KT 29/06 A2996 RMK A01 T02880064  RH  024%=      5-min Rain = 0
KCH1 242239Z 26005KT 29/07 A2996 RMK A01 T02890066  RH  024%=      5-min Rain = 0
KCH1 242240Z 27005KT 29/06 A2996 RMK A01 T02910061  RH  024%=      5-min Rain = 0
KCH1 242241Z 26004KT 29/06 A2996 RMK A01 T02900063  RH  024%=      5-min Rain = 0
KCH1 242242Z 28004KT 29/06 A2996 RMK A01 T02910062  RH  024%=      5-min Rain = 0
KCH1 242243Z 26003KT 29/07 A2996 RMK A01 T02920065  RH  024%=      5-min Rain = 0
KCH1 242244Z 26004KT 29/07 A2996 RMK A01 T02930067  RH  024%=      5-min Rain = 0
KCH1 242245Z 28006KT 29/06 A2996 RMK A01 T02930063  RH  023%=      5-min Rain = 0
KCH1 242246Z 28007KT 29/06 A2996 RMK A01 T02930061  RH  023%=      5-min Rain = 0
KCH1 242247Z 27006KT 29/06 A2996 RMK A01 T02910061  RH  024%=      5-min Rain = 0
KCH1 242248Z 24004KT 29/06 A2996 RMK A01 T02890061  RH  024%=      5-min Rain = 0
KCH1 242249Z 26006KT 29/06 A2996 RMK A01 T02890062  RH  024%=      5-min Rain = 0
KCH1 242250Z 25008KT 29/06 A2996 RMK A01 T02900057  RH  023%=      5-min Rain = 0
KCH1 242251Z 24006KT 29/06 A2996 RMK A01 T02910059  RH  023%=      5-min Rain = 0
KCH1 242252Z 25008KT 29/06 A2996 RMK A01 T02910060  RH  023%=      5-min Rain = 0
KCH1 242253Z 25010KT 29/06 A2996 RMK A01 T02910055  RH  022%=      5-min Rain = 0
KCH1 242254Z 25009KT 29/05 A2996 RMK A01 T02890052  RH  022%=      5-min Rain = 0
KCH1 242255Z 27010KT 29/05 A2996 RMK A01 T02880048  RH  022%=      5-min Rain = 0
KCH1 242256Z 26006G11KT 29/05 A2996 RMK A01 T02880048  RH  022%=      5-min Rain = 0
KCH1 242257Z 27008KT 29/05 A2996 RMK A01 T02880052  RH  022%=      5-min Rain = 0
KCH1 242258Z 27006KT 29/05 A2996 RMK A01 T02890045  RH  021%=      5-min Rain = 0
KCH1 242259Z 26008KT 29/05 A2996 RMK A01 T02900048  RH  022%=      5-min Rain = 0
KCH1 242300Z 25010KT 29/05 A2996 RMK A01 T02900045  RH  021%=      5-min Rain = 0
KCH1 242301Z 25010KT 29/04 A2996 RMK A01 T02880044  RH  021%=      5-min Rain = 0
KCH1 242302Z 25012KT 29/04 A2996 RMK A01 T02880044  RH  021%=      5-min Rain = 0
KCH1 242303Z 24012KT 29/03 A2996 RMK A01 T02870032  RH  019%=      5-min Rain = 0
KCH1 242304Z 25011KT 29/03 A2996 RMK A01 T02860033  RH  020%=      5-min Rain = 0
KCH1 242305Z 24009KT 29/03 A2996 RMK A01 T02860034  RH  020%=      5-min Rain = 0
KCH1 242306Z 24009KT 29/04 A2996 RMK A01 T02860037  RH  020%=      5-min Rain = 0
KCH1 242307Z 26007KT 29/04 A2996 RMK A01 T02860037  RH  020%=      5-min Rain = 0
KCH1 242308Z 25008KT 29/04 A2996 RMK A01 T02870040  RH  021%=      5-min Rain = 0
KCH1 242309Z 26011KT 29/04 A2996 RMK A01 T02870037  RH  020%=      5-min Rain = 0
KCH1 242310Z 25012KT 29/04 A2996 RMK A01 T02870035  RH  020%=      5-min Rain = 0
KCH1 242311Z 26007KT 29/04 A2996 RMK A01 T02860036  RH  020%=      5-min Rain = 0
KCH1 242312Z 28009KT 29/04 A2996 RMK A01 T02870040  RH  021%=      5-min Rain = 0
KCH1 242313Z 26010KT 29/04 A2996 RMK A01 T02870039  RH  020%=      5-min Rain = 0
KCH1 242314Z 27009KT 29/04 A2996 RMK A01 T02880035  RH  020%=      5-min Rain = 0
KCH1 242315Z 27009KT 29/04 A2996 RMK A01 T02870035  RH  020%=      5-min Rain = 0
KCH1 242316Z 26009KT 29/04 A2997 RMK A01 T02870035  RH  020%=      5-min Rain = 0
KCH1 242317Z 28008KT 29/04 A2997 RMK A01 T02870038  RH  020%=      5-min Rain = 0
KCH1 242318Z 27008KT 29/04 A2997 RMK A01 T02870039  RH  021%=      5-min Rain = 0
KCH1 242319Z 26007KT 29/04 A2997 RMK A01 T02870037  RH  020%=      5-min Rain = 0
KCH1 242320Z 26008KT 29/04 A2997 RMK A01 T02870039  RH  021%=      5-min Rain = 0
KCH1 242321Z 25007KT 29/04 A2997 RMK A01 T02870035  RH  020%=      5-min Rain = 0
KCH1 242322Z 26005KT 29/04 A2997 RMK A01 T02860036  RH  020%=      5-min Rain = 0
KCH1 242323Z 27004KT 29/04 A2997 RMK A01 T02860040  RH  021%=      5-min Rain = 0
KCH1 242324Z 27007KT 29/04 A2997 RMK A01 T02870039  RH  021%=      5-min Rain = 0
KCH1 242325Z 27005KT 29/04 A2997 RMK A01 T02880041  RH  021%=      5-min Rain = 0
KCH1 242326Z 28006KT 29/04 A2997 RMK A01 T02880039  RH  020%=      5-min Rain = 0
KCH1 242327Z 25007KT 29/04 A2997 RMK A01 T02890043  RH  021%=      5-min Rain = 0
KCH1 242328Z 26006KT 29/04 A2997 RMK A01 T02890041  RH  021%=      5-min Rain = 0
KCH1 242329Z 25008KT 29/04 A2997 RMK A01 T02890042  RH  021%=      5-min Rain = 0
KCH1 242330Z 26008KT 29/04 A2997 RMK A01 T02890039  RH  020%=      5-min Rain = 0
KCH1 242331Z 28010KT 29/04 A2997 RMK A01 T02880038  RH  020%=      5-min Rain = 0
KCH1 242332Z 26009G14KT 29/04 A2997 RMK A01 T02870035  RH  020%=      5-min Rain = 0
KCH1 242333Z 25010KT 29/03 A2997 RMK A01 T02860033  RH  020%=      5-min Rain = 0
KCH1 242334Z 24008KT 29/04 A2997 RMK A01 T02860037  RH  020%=      5-min Rain = 0
KCH1 242335Z 24009KT 29/04 A2997 RMK A01 T02860036  RH  020%=      5-min Rain = 0
KCH1 242336Z 25009KT 29/04 A2997 RMK A01 T02850036  RH  020%=      5-min Rain = 0
KCH1 242337Z 24006KT 29/04 A2997 RMK A01 T02860036  RH  020%=      5-min Rain = 0
KCH1 242338Z 24007KT 29/04 A2997 RMK A01 T02850037  RH  020%=      5-min Rain = 0
KCH1 242339Z 24009KT 29/04 A2997 RMK A01 T02850035  RH  020%=      5-min Rain = 0
KCH1 242340Z 25008KT 29/03 A2997 RMK A01 T02850032  RH  020%=      5-min Rain = 0
KCH1 242341Z 24007KT 28/03 A2997 RMK A01 T02840033  RH  020%=      5-min Rain = 0
KCH1 242342Z 23007KT 28/03 A2997 RMK A01 T02830034  RH  020%=      5-min Rain = 0
KCH1 242343Z 24006KT 28/04 A2997 RMK A01 T02840038  RH  021%=      5-min Rain = 0
KCH1 242344Z 26005KT 28/04 A2997 RMK A01 T02840040  RH  021%=      5-min Rain = 0
KCH1 242345Z 25006KT 29/04 A2997 RMK A01 T02850039  RH  021%=      5-min Rain = 0
KCH1 242346Z 25007KT 29/04 A2997 RMK A01 T02860035  RH  020%=      5-min Rain = 0
KCH1 242347Z 25007KT 29/03 A2997 RMK A01 T02850033  RH  020%=      5-min Rain = 0
KCH1 242348Z 24008KT 29/04 A2997 RMK A01 T02860035  RH  020%=      5-min Rain = 0
KCH1 242349Z 24009KT 29/03 A2997 RMK A01 T02850031  RH  020%=      5-min Rain = 0
KCH1 242350Z 25009KT 29/03 A2997 RMK A01 T02850029  RH  019%=      5-min Rain = 0
KCH1 242351Z 25007KT 28/03 A2997 RMK A01 T02840033  RH  020%=      5-min Rain = 0
KCH1 242352Z 25007KT 28/03 A2997 RMK A01 T02840034  RH  020%=      5-min Rain = 0
KCH1 242353Z 26007KT 28/03 A2997 RMK A01 T02840034  RH  020%=      5-min Rain = 0
KCH1 242354Z 26008KT 28/04 A2997 RMK A01 T02840038  RH  021%=      5-min Rain = 0
KCH1 242355Z 25008KT 28/03 A2997 RMK A01 T02840031  RH  020%=      5-min Rain = 0
KCH1 242356Z 24005KT 28/04 A2997 RMK A01 T02830035  RH  020%=      5-min Rain = 0
KCH1 242357Z 23009KT 28/03 A2997 RMK A01 T02830034  RH  020%=      5-min Rain = 0
KCH1 242358Z 23009KT 28/03 A2997 RMK A01 T02830030  RH  020%=      5-min Rain = 0
KCH1 242359Z 25007KT 28/03 A2997 RMK A01 T02830027  RH  019%=      5-min Rain = 0
KCH1 250000Z 24007KT 28/03 A2997 RMK A01 T02830029  RH  020%=      5-min Rain = 0
KCH1 250001Z 24005KT 28/03 A2997 RMK A01 T02830032  RH  020%=      5-min Rain = 0
KCH1 250002Z 24004KT 28/03 A2997 RMK A01 T02820034  RH  020%=      5-min Rain = 0
KCH1 250003Z 23008KT 28/03 A2997 RMK A01 T02820034  RH  020%=      5-min Rain = 0
KCH1 250004Z 24006KT 28/03 A2997 RMK A01 T02820031  RH  020%=      5-min Rain = 0
KCH1 250005Z 24006KT 28/03 A2997 RMK A01 T02820033  RH  020%=      5-min Rain = 0
KCH1 250006Z 25008KT 28/03 A2997 RMK A01 T02810030  RH  020%=      5-min Rain = 0
KCH1 250007Z 26006KT 28/03 A2997 RMK A01 T02810032  RH  020%=      5-min Rain = 0
KCH1 250008Z 27007KT 28/03 A2997 RMK A01 T02810031  RH  020%=      5-min Rain = 0
KCH1 250009Z 26006KT 28/03 A2997 RMK A01 T02810026  RH  019%=      5-min Rain = 0
KCH1 250010Z 26006KT 28/03 A2997 RMK A01 T02800027  RH  020%=      5-min Rain = 0
KCH1 250011Z 27005KT 28/02 A2997 RMK A01 T02800024  RH  019%=      5-min Rain = 0
KCH1 250012Z 28006KT 28/02 A2997 RMK A01 T02800023  RH  019%=      5-min Rain = 0
KCH1 250013Z 27006KT 28/02 A2997 RMK A01 T02800016  RH  018%=      5-min Rain = 0
KCH1 250014Z 26006KT 28/02 A2998 RMK A01 T02800022  RH  019%=      5-min Rain = 0
KCH1 250015Z 27007KT 28/02 A2997 RMK A01 T02800015  RH  018%=      5-min Rain = 0
KCH1 250016Z 27006KT 28/02 A2998 RMK A01 T02800017  RH  018%=      5-min Rain = 0
KCH1 250017Z 26005KT 28/02 A2998 RMK A01 T02790018  RH  019%=      5-min Rain = 0
KCH1 250018Z 26006KT 28/02 A2998 RMK A01 T02780019  RH  019%=      5-min Rain = 0
KCH1 250019Z 26006KT 28/02 A2998 RMK A01 T02780019  RH  019%=      5-min Rain = 0
KCH1 250020Z 27005KT 28/02 A2998 RMK A01 T02780019  RH  019%=      5-min Rain = 0
KCH1 250021Z 27004KT 28/02 A2998 RMK A01 T02770020  RH  019%=      5-min Rain = 0
KCH1 250022Z 26005KT 28/02 A2998 RMK A01 T02770021  RH  019%=      5-min Rain = 0
KCH1 250023Z 25004KT 28/02 A2998 RMK A01 T02770023  RH  019%=      5-min Rain = 0
KCH1 250024Z 25005KT 28/02 A2998 RMK A01 T02760024  RH  020%=      5-min Rain = 0
KCH1 250025Z 25006KT 28/02 A2998 RMK A01 T02750024  RH  020%=      5-min Rain = 0
KCH1 250026Z 25005KT 28/02 A2998 RMK A01 T02750024  RH  020%=      5-min Rain = 0
KCH1 250027Z 26004KT 27/03 A2998 RMK A01 T02740026  RH  020%=      5-min Rain = 0
KCH1 250028Z 26004KT 27/03 A2998 RMK A01 T02740029  RH  021%=      5-min Rain = 0
KCH1 250029Z 25005KT 27/03 A2998 RMK A01 T02730027  RH  020%=      5-min Rain = 0
KCH1 250030Z 25005KT 27/03 A2998 RMK A01 T02730026  RH  020%=      5-min Rain = 0
KCH1 250031Z 25005KT 27/03 A2998 RMK A01 T02720027  RH  021%=      5-min Rain = 0
KCH1 250032Z 26004KT 27/03 A2998 RMK A01 T02720026  RH  021%=      5-min Rain = 0
KCH1 250033Z 25005KT 27/03 A2998 RMK A01 T02710027  RH  021%=      5-min Rain = 0
KCH1 250034Z 26005KT 27/03 A2998 RMK A01 T02710025  RH  020%=      5-min Rain = 0
KCH1 250035Z 25005KT 27/03 A2998 RMK A01 T02700028  RH  021%=      5-min Rain = 0
KCH1 250036Z 26005KT 27/02 A2998 RMK A01 T02690024  RH  020%=      5-min Rain = 0
KCH1 250037Z 26005KT 27/03 A2998 RMK A01 T02690026  RH  021%=      5-min Rain = 0
KCH1 250038Z 26005KT 27/02 A2998 RMK A01 T02680024  RH  021%=      5-min Rain = 0
KCH1 250039Z 26005KT 27/03 A2998 RMK A01 T02680026  RH  021%=      5-min Rain = 0
KCH1 250040Z 26005KT 27/03 A2998 RMK A01 T02660027  RH  021%=      5-min Rain = 0
KCH1 250041Z 27004KT 27/03 A2998 RMK A01 T02650026  RH  021%=      5-min Rain = 0
KCH1 250042Z 27005KT 27/02 A2998 RMK A01 T02650023  RH  021%=      5-min Rain = 0
KCH1 250043Z 28005KT 27/02 A2998 RMK A01 T02650023  RH  021%=      5-min Rain = 0
KCH1 250044Z 28004KT 26/03 A2998 RMK A01 T02640025  RH  021%=      5-min Rain = 0
KCH1 250045Z 28005KT 26/02 A2998 RMK A01 T02620024  RH  021%=      5-min Rain = 0
KCH1 250046Z 28004KT 26/02 A2998 RMK A01 T02610024  RH  022%=      5-min Rain = 0
KCH1 250047Z 28005KT 26/03 A2998 RMK A01 T02600025  RH  022%=      5-min Rain = 0
KCH1 250048Z 29004KT 26/03 A2998 RMK A01 T02590025  RH  022%=      5-min Rain = 0
KCH1 250049Z 29004KT 26/03 A2998 RMK A01 T02580026  RH  022%=      5-min Rain = 0
KCH1 250050Z 30003KT 26/03 A2998 RMK A01 T02570028  RH  023%=      5-min Rain = 0
KCH1 250051Z 31003KT 26/03 A2998 RMK A01 T02560029  RH  023%=      5-min Rain = 0
KCH1 250052Z 30003KT 25/03 A2998 RMK A01 T02540030  RH  023%=      5-min Rain = 0
KCH1 250053Z 30002KT 25/03 A2998 RMK A01 T02530030  RH  024%=      5-min Rain = 0
KCH1 250054Z 31002KT 25/03 A2998 RMK A01 T02510031  RH  024%=      5-min Rain = 0
KCH1 250055Z 30003KT 25/03 A2998 RMK A01 T02500034  RH  025%=      5-min Rain = 0
KCH1 250056Z 30004KT 25/04 A2998 RMK A01 T02490036  RH  025%=      5-min Rain = 0
KCH1 250057Z 30004KT 25/04 A2998 RMK A01 T02480038  RH  026%=      5-min Rain = 0
KCH1 250058Z 30004KT 25/04 A2998 RMK A01 T02470039  RH  026%=      5-min Rain = 0
KCH1 250059Z 30005KT 25/04 A2998 RMK A01 T02470039  RH  026%=      5-min Rain = 0
KCH1 250100Z 29005KT 25/04 A2998 RMK A01 T02470038  RH  026%=      5-min Rain = 0
KCH1 250101Z 29006KT 25/03 A2998 RMK A01 T02470034  RH  025%=      5-min Rain = 0
KCH1 250102Z 29005KT 25/03 A2998 RMK A01 T02470034  RH  025%=      5-min Rain = 0
KCH1 250103Z 29005KT 25/03 A2998 RMK A01 T02460034  RH  025%=      5-min Rain = 0
KCH1 250104Z 29006KT 25/03 A2998 RMK A01 T02460034  RH  025%=      5-min Rain = 0
KCH1 250105Z 29006KT 25/03 A2998 RMK A01 T02460032  RH  025%=      5-min Rain = 0
KCH1 250106Z 29006KT 25/03 A2998 RMK A01 T02460028  RH  024%=      5-min Rain = 0
KCH1 250107Z 30006KT 25/03 A2998 RMK A01 T02470028  RH  024%=      5-min Rain = 0
KCH1 250108Z 29006KT 25/03 A2998 RMK A01 T02470029  RH  024%=      5-min Rain = 0
KCH1 250109Z 29006KT 25/03 A2998 RMK A01 T02460030  RH  024%=      5-min Rain = 0
KCH1 250110Z 30004KT 25/03 A2998 RMK A01 T02460030  RH  024%=      5-min Rain = 0
KCH1 250111Z 29005KT 25/03 A2998 RMK A01 T02450032  RH  025%=      5-min Rain = 0
KCH1 250112Z 29005KT 24/03 A2998 RMK A01 T02440029  RH  025%=      5-min Rain = 0
KCH1 250113Z 29004KT 24/03 A2999 RMK A01 T02430028  RH  024%=      5-min Rain = 0
KCH1 250114Z 29004KT 24/03 A2999 RMK A01 T02440026  RH  024%=      5-min Rain = 0
KCH1 250115Z 29004KT 24/03 A2999 RMK A01 T02440025  RH  024%=      5-min Rain = 0
KCH1 250116Z 29004KT 24/02 A2999 RMK A01 T02440024  RH  024%=      5-min Rain = 0
KCH1 250117Z 29004KT 25/02 A2999 RMK A01 T02450023  RH  023%=      5-min Rain = 0
KCH1 250118Z 29004KT 25/02 A2999 RMK A01 T02450022  RH  023%=      5-min Rain = 0
KCH1 250119Z 29004KT 25/02 A2999 RMK A01 T02450021  RH  023%=      5-min Rain = 0
KCH1 250120Z 29004KT 25/02 A2999 RMK A01 T02450020  RH  023%=      5-min Rain = 0
KCH1 250121Z 29004KT 25/02 A2999 RMK A01 T02450022  RH  023%=      5-min Rain = 0
KCH1 250122Z 28004KT 24/03 A2999 RMK A01 T02440026  RH  024%=      5-min Rain = 0
KCH1 250123Z 28004KT 24/03 A2999 RMK A01 T02420029  RH  025%=      5-min Rain = 0
KCH1 250124Z 28004KT 24/03 A2999 RMK A01 T02400028  RH  025%=      5-min Rain = 0
KCH1 250125Z 28004KT 24/03 A2999 RMK A01 T02390027  RH  025%=      5-min Rain = 0
KCH1 250126Z 28004KT 24/03 A2999 RMK A01 T02380029  RH  025%=      5-min Rain = 0
KCH1 250127Z 28004KT 24/03 A2999 RMK A01 T02380028  RH  025%=      5-min Rain = 0
KCH1 250128Z 28004KT 24/03 A2999 RMK A01 T02370028  RH  025%=      5-min Rain = 0
KCH1 250129Z 28004KT 24/03 A2999 RMK A01 T02370028  RH  025%=      5-min Rain = 0
KCH1 250130Z 28004KT 24/03 A2999 RMK A01 T02370028  RH  025%=      5-min Rain = 0
KCH1 250131Z 29004KT 24/03 A2999 RMK A01 T02370027  RH  025%=      5-min Rain = 0
KCH1 250132Z 28004KT 24/03 A2999 RMK A01 T02370025  RH  025%=      5-min Rain = 0
KCH1 250133Z 29004KT 24/03 A2999 RMK A01 T02370025  RH  025%=      5-min Rain = 0
KCH1 250134Z 29004KT 24/02 A2999 RMK A01 T02370022  RH  024%=      5-min Rain = 0
KCH1 250135Z 29003KT 24/02 A2999 RMK A01 T02370023  RH  025%=      5-min Rain = 0
KCH1 250136Z 29003KT 24/03 A2999 RMK A01 T02360029  RH  026%=      5-min Rain = 0
KCH1 250137Z 29003KT 23/03 A30 RMK A01 T02340031  RH  026%=      5-min Rain = 0
KCH1 250138Z 28002KT 23/03 A30 RMK A01 T02320029  RH  026%=      5-min Rain = 0
KCH1 250139Z 28003KT 23/03 A30 RMK A01 T02310030  RH  027%=      5-min Rain = 0
KCH1 250140Z 28002KT 23/03 A30 RMK A01 T02300032  RH  027%=      5-min Rain = 0
KCH1 250141Z 29002KT 23/03 A30 RMK A01 T02280032  RH  028%=      5-min Rain = 0
KCH1 250142Z 30002KT 23/03 A30 RMK A01 T02250033  RH  028%=      5-min Rain = 0
KCH1 250143Z 31002KT 22/03 A30 RMK A01 T02230033  RH  029%=      5-min Rain = 0
KCH1 250144Z 32002KT 22/04 A30 RMK A01 T02210039  RH  030%=      5-min Rain = 0
KCH1 250145Z 34002KT 22/05 A30 RMK A01 T02150048  RH  034%=      5-min Rain = 0
KCH1 250146Z 00002KT 21/05 A30 RMK A01 T02080049  RH  035%=      5-min Rain = 0
KCH1 250147Z 00002KT 20/05 A30 RMK A01 T02020051  RH  037%=      5-min Rain = 0
KCH1 250148Z 35003KT 20/05 A30 RMK A01 T01990050  RH  037%=      5-min Rain = 0
KCH1 250149Z 35003KT 20/05 A30 RMK A01 T01970048  RH  038%=      5-min Rain = 0
KCH1 250150Z 01003KT 20/05 A30 RMK A01 T01960047  RH  038%=      5-min Rain = 0
KCH1 250151Z 03004KT 20/05 A30 RMK A01 T01950049  RH  038%=      5-min Rain = 0
KCH1 250152Z 04006KT 19/05 A30 RMK A01 T01930052  RH  040%=      5-min Rain = 0
KCH1 250153Z 05007KT 19/06 A30 RMK A01 T01910056  RH  041%=      5-min Rain = 0
KCH1 250154Z 05009KT 19/06 A3001 RMK A01 T01880059  RH  043%=      5-min Rain = 0
KCH1 250155Z 05009G16KT 18/06 A3001 RMK A01 T01840062  RH  045%=      5-min Rain = 0
KCH1 250156Z 04009KT 18/07 A3001 RMK A01 T01800067  RH  047%=      5-min Rain = 0
KCH1 250157Z 04009KT 18/07 A3001 RMK A01 T01790068  RH  048%=      5-min Rain = 0
KCH1 250158Z 05010KT 18/07 A3001 RMK A01 T01820070  RH  048%=      5-min Rain = 0
KCH1 250159Z 04011KT 19/07 A3001 RMK A01 T01850072  RH  048%=      5-min Rain = 0
KCH1 250200Z 04012KT 19/07 A3001 RMK A01 T01870071  RH  047%=      5-min Rain = 0
KCH1 250201Z 05012KT 19/07 A3001 RMK A01 T01890072  RH  046%=      5-min Rain = 0
KCH1 250202Z 05012KT 19/07 A3001 RMK A01 T01900071  RH  046%=      5-min Rain = 0
KCH1 250203Z 06011KT 19/07 A3001 RMK A01 T01910071  RH  046%=      5-min Rain = 0
KCH1 250204Z 05009KT 19/07 A3001 RMK A01 T01910072  RH  046%=      5-min Rain = 0
KCH1 250205Z 06009KT 19/07 A3001 RMK A01 T01900071  RH  046%=      5-min Rain = 0
KCH1 250206Z 05010KT 19/07 A3001 RMK A01 T01910071  RH  045%=      5-min Rain = 0
KCH1 250207Z 06008KT 19/07 A3001 RMK A01 T01930071  RH  045%=      5-min Rain = 0
KCH1 250208Z 06009KT 19/07 A3001 RMK A01 T01930071  RH  045%=      5-min Rain = 0
KCH1 250209Z 06008KT 19/07 A3002 RMK A01 T01930072  RH  046%=      5-min Rain = 0
KCH1 250210Z 07006KT 19/07 A3002 RMK A01 T01920073  RH  046%=      5-min Rain = 0
KCH1 250211Z 07007KT 19/07 A3002 RMK A01 T01910073  RH  046%=      5-min Rain = 0
KCH1 250212Z 06007KT 19/07 A3002 RMK A01 T01900073  RH  047%=      5-min Rain = 0
KCH1 250213Z 06007KT 19/07 A3002 RMK A01 T01890074  RH  047%=      5-min Rain = 0
KCH1 250214Z 06008KT 19/08 A3002 RMK A01 T01890075  RH  048%=      5-min Rain = 0
KCH1 250215Z 06009KT 19/08 A3002 RMK A01 T01880075  RH  048%=      5-min Rain = 0
KCH1 250216Z 06008KT 19/08 A3002 RMK A01 T01880076  RH  048%=      5-min Rain = 0
KCH1 250217Z 06008KT 19/08 A3002 RMK A01 T01880076  RH  048%=      5-min Rain = 0
KCH1 250218Z 06009KT 19/08 A3002 RMK A01 T01890077  RH  048%=      5-min Rain = 0
KCH1 250219Z 06008KT 19/08 A3002 RMK A01 T01880078  RH  049%=      5-min Rain = 0
KCH1 250220Z 06009KT 19/08 A3002 RMK A01 T01880078  RH  049%=      5-min Rain = 0
KCH1 250221Z 06010KT 19/08 A3002 RMK A01 T01880078  RH  049%=      5-min Rain = 0
KCH1 250222Z 06009KT 19/08 A3002 RMK A01 T01890078  RH  049%=      5-min Rain = 0
KCH1 250223Z 06009KT 19/08 A3002 RMK A01 T01880079  RH  049%=      5-min Rain = 0
KCH1 250224Z 06009KT 19/08 A3002 RMK A01 T01880078  RH  049%=      5-min Rain = 0
KCH1 250225Z 06010KT 19/08 A3002 RMK A01 T01880079  RH  049%=      5-min Rain = 0
KCH1 250226Z 06010KT 19/08 A3002 RMK A01 T01880079  RH  049%=      5-min Rain = 0
KCH1 250227Z 06009KT 19/08 A3002 RMK A01 T01880079  RH  049%=      5-min Rain = 0
KCH1 250228Z 05009KT 19/08 A3002 RMK A01 T01870079  RH  050%=      5-min Rain = 0
KCH1 250229Z 06009KT 19/08 A3002 RMK A01 T01860079  RH  050%=      5-min Rain = 0
KCH1 250230Z 05009KT 19/08 A3002 RMK A01 T01860079  RH  050%=      5-min Rain = 0
KCH1 250231Z 05010KT 19/08 A3002 RMK A01 T01860079  RH  050%=      5-min Rain = 0
KCH1 250232Z 05008KT 19/08 A3002 RMK A01 T01880079  RH  049%=      5-min Rain = 0
KCH1 250233Z 05007KT 19/08 A3003 RMK A01 T01880079  RH  049%=      5-min Rain = 0
KCH1 250234Z 05008KT 19/08 A3003 RMK A01 T01870079  RH  049%=      5-min Rain = 0
KCH1 250235Z 05008KT 19/08 A3003 RMK A01 T01850079  RH  050%=      5-min Rain = 0
KCH1 250236Z 05009KT 19/08 A3003 RMK A01 T01850079  RH  050%=      5-min Rain = 0
KCH1 250237Z 05009KT 19/08 A3003 RMK A01 T01850079  RH  050%=      5-min Rain = 0
KCH1 250238Z 05009KT 19/08 A3003 RMK A01 T01850079  RH  050%=      5-min Rain = 0
KCH1 250239Z 05010KT 19/08 A3003 RMK A01 T01850079  RH  050%=      5-min Rain = 0
KCH1 250240Z 05009KT 18/08 A3003 RMK A01 T01840078  RH  050%=      5-min Rain = 0
KCH1 250241Z 05009KT 19/08 A3003 RMK A01 T01850079  RH  050%=      5-min Rain = 0
KCH1 250242Z 05009KT 19/08 A3003 RMK A01 T01850078  RH  050%=      5-min Rain = 0
KCH1 250243Z 05010KT 19/08 A3003 RMK A01 T01850078  RH  050%=      5-min Rain = 0
KCH1 250244Z 05010KT 19/08 A3003 RMK A01 T01860077  RH  049%=      5-min Rain = 0
KCH1 250245Z 05009KT 19/08 A3003 RMK A01 T01870078  RH  049%=      5-min Rain = 0
KCH1 250246Z 05010KT 19/08 A3003 RMK A01 T01870078  RH  049%=      5-min Rain = 0
KCH1 250247Z 05010KT 19/08 A3003 RMK A01 T01870077  RH  049%=      5-min Rain = 0
KCH1 250248Z 04010KT 19/08 A3003 RMK A01 T01870077  RH  049%=      5-min Rain = 0
KCH1 250249Z 05011KT 19/08 A3003 RMK A01 T01870077  RH  049%=      5-min Rain = 0
KCH1 250250Z 04010KT 19/08 A3003 RMK A01 T01870077  RH  048%=      5-min Rain = 0
KCH1 250251Z 03009KT 19/08 A3003 RMK A01 T01880077  RH  049%=      5-min Rain = 0
KCH1 250252Z 03010KT 19/08 A3003 RMK A01 T01870077  RH  049%=      5-min Rain = 0
KCH1 250253Z 03009KT 19/08 A3003 RMK A01 T01870076  RH  048%=      5-min Rain = 0
KCH1 250254Z 04009KT 19/08 A3003 RMK A01 T01880076  RH  048%=      5-min Rain = 0
KCH1 250255Z 04009KT 19/08 A3003 RMK A01 T01880075  RH  048%=      5-min Rain = 0
KCH1 250256Z 04007KT 19/08 A3003 RMK A01 T01890075  RH  048%=      5-min Rain = 0
KCH1 250257Z 04008KT 19/08 A3003 RMK A01 T01890076  RH  048%=      5-min Rain = 0
KCH1 250258Z 04009KT 19/08 A3003 RMK A01 T01890075  RH  048%=      5-min Rain = 0
KCH1 250259Z 05009KT 19/08 A3003 RMK A01 T01890076  RH  048%=      5-min Rain = 0
KCH1 250300Z 05010KT 19/08 A3003 RMK A01 T01890075  RH  048%=      5-min Rain = 0
KCH1 250301Z 05009KT 19/08 A3003 RMK A01 T01890076  RH  048%=      5-min Rain = 0
KCH1 250302Z 06010KT 19/08 A3003 RMK A01 T01880076  RH  048%=      5-min Rain = 0
KCH1 250303Z 06009KT 19/08 A3003 RMK A01 T01880076  RH  048%=      5-min Rain = 0
KCH1 250304Z 06009KT 19/08 A3004 RMK A01 T01870076  RH  048%=      5-min Rain = 0
KCH1 250305Z 06009KT 19/08 A3004 RMK A01 T01870076  RH  048%=      5-min Rain = 0
KCH1 250306Z 05010KT 19/08 A3004 RMK A01 T01870076  RH  048%=      5-min Rain = 0
KCH1 250307Z 05009KT 19/08 A3004 RMK A01 T01870075  RH  048%=      5-min Rain = 0
KCH1 250308Z 05008KT 19/08 A3004 RMK A01 T01860076  RH  049%=      5-min Rain = 0
KCH1 250309Z 05008KT 19/08 A3004 RMK A01 T01850076  RH  049%=      5-min Rain = 0
KCH1 250310Z 05008KT 18/08 A3004 RMK A01 T01830076  RH  049%=      5-min Rain = 0
KCH1 250311Z 04010KT 18/08 A3004 RMK A01 T01830076  RH  050%=      5-min Rain = 0
KCH1 250312Z 05009KT 18/08 A3004 RMK A01 T01830076  RH  050%=      5-min Rain = 0
KCH1 250313Z 05010KT 18/08 A3004 RMK A01 T01820076  RH  050%=      5-min Rain = 0
KCH1 250314Z 06009KT 18/08 A3004 RMK A01 T01820076  RH  050%=      5-min Rain = 0
KCH1 250315Z 06010KT 18/08 A3004 RMK A01 T01830076  RH  050%=      5-min Rain = 0
KCH1 250316Z 06010KT 18/08 A3004 RMK A01 T01830077  RH  050%=      5-min Rain = 0
KCH1 250317Z 06009KT 18/08 A3004 RMK A01 T01820076  RH  050%=      5-min Rain = 0
KCH1 250318Z 06010KT 18/08 A3004 RMK A01 T01820076  RH  050%=      5-min Rain = 0
KCH1 250319Z 06010KT 18/08 A3004 RMK A01 T01820076  RH  050%=      5-min Rain = 0
KCH1 250320Z 06008KT 18/08 A3004 RMK A01 T01830076  RH  049%=      5-min Rain = 0
KCH1 250321Z 06008KT 18/08 A3004 RMK A01 T01830075  RH  049%=      5-min Rain = 0
KCH1 250322Z 05009KT 18/08 A3004 RMK A01 T01830076  RH  050%=      5-min Rain = 0
KCH1 250323Z 06008KT 18/08 A3004 RMK A01 T01820076  RH  050%=      5-min Rain = 0
KCH1 250324Z 06008KT 18/08 A3004 RMK A01 T01820075  RH  050%=      5-min Rain = 0
KCH1 250325Z 06009KT 18/08 A3004 RMK A01 T01820075  RH  050%=      5-min Rain = 0
KCH1 250326Z 06008KT 18/08 A3005 RMK A01 T01820076  RH  050%=      5-min Rain = 0
KCH1 250327Z 06008KT 18/08 A3005 RMK A01 T01810076  RH  050%=      5-min Rain = 0
KCH1 250328Z 07008KT 18/08 A3005 RMK A01 T01800075  RH  050%=      5-min Rain = 0
KCH1 250329Z 06008KT 18/08 A3005 RMK A01 T01790075  RH  051%=      5-min Rain = 0
KCH1 250330Z 07009KT 18/08 A3005 RMK A01 T01790075  RH  051%=      5-min Rain = 0
KCH1 250331Z 07008KT 18/08 A3005 RMK A01 T01800075  RH  050%=      5-min Rain = 0
KCH1 250332Z 07008KT 18/08 A3005 RMK A01 T01810075  RH  050%=      5-min Rain = 0
KCH1 250333Z 07008KT 18/08 A3005 RMK A01 T01800076  RH  050%=      5-min Rain = 0
KCH1 250334Z 07006KT 18/08 A3005 RMK A01 T01790076  RH  051%=      5-min Rain = 0
KCH1 250335Z 07008KT 18/08 A3005 RMK A01 T01770075  RH  051%=      5-min Rain = 0
KCH1 250336Z 07007KT 18/08 A3005 RMK A01 T01780075  RH  051%=      5-min Rain = 0
KCH1 250337Z 07007KT 18/08 A3005 RMK A01 T01770076  RH  051%=      5-min Rain = 0
KCH1 250338Z 07007KT 18/08 A3005 RMK A01 T01760075  RH  052%=      5-min Rain = 0
KCH1 250339Z 06007KT 18/08 A3005 RMK A01 T01760075  RH  052%=      5-min Rain = 0
KCH1 250340Z 07006KT 18/08 A3005 RMK A01 T01760075  RH  052%=      5-min Rain = 0
KCH1 250341Z 07006KT 18/08 A3005 RMK A01 T01750075  RH  052%=      5-min Rain = 0
KCH1 250342Z 06005KT 17/08 A3005 RMK A01 T01740075  RH  052%=      5-min Rain = 0
KCH1 250343Z 06006KT 17/08 A3005 RMK A01 T01740075  RH  052%=      5-min Rain = 0
KCH1 250344Z 06005KT 17/08 A3006 RMK A01 T01730075  RH  052%=      5-min Rain = 0
KCH1 250345Z 07005KT 17/08 A3006 RMK A01 T01730075  RH  052%=      5-min Rain = 0
KCH1 250346Z 06004KT 17/08 A3006 RMK A01 T01730075  RH  053%=      5-min Rain = 0
KCH1 250347Z 04003KT 17/08 A3006 RMK A01 T01720075  RH  053%=      5-min Rain = 0
KCH1 250348Z 03003KT 17/08 A3006 RMK A01 T01710075  RH  053%=      5-min Rain = 0
KCH1 250349Z 02003KT 17/07 A3006 RMK A01 T01710074  RH  053%=      5-min Rain = 0
KCH1 250350Z 02003KT 17/08 A3006 RMK A01 T01710075  RH  053%=      5-min Rain = 0
KCH1 250351Z 02002KT 17/08 A3006 RMK A01 T01710075  RH  053%=      5-min Rain = 0
KCH1 250352Z 00002KT 17/08 A3006 RMK A01 T01710075  RH  053%=      5-min Rain = 0
KCH1 250353Z 00003KT 17/08 A3006 RMK A01 T01710075  RH  053%=      5-min Rain = 0
KCH1 250354Z 01002KT 17/08 A3006 RMK A01 T01710075  RH  053%=      5-min Rain = 0
KCH1 250355Z 03003KT 17/08 A3006 RMK A01 T01710075  RH  053%=      5-min Rain = 0
KCH1 250356Z 02002KT 17/08 A3006 RMK A01 T01710075  RH  053%=      5-min Rain = 0
KCH1 250357Z 02003KT 17/07 A3006 RMK A01 T01710074  RH  053%=      5-min Rain = 0
KCH1 250358Z 02002KT 17/08 A3006 RMK A01 T01710075  RH  053%=      5-min Rain = 0
KCH1 250359Z 03002KT 17/08 A3006 RMK A01 T01710075  RH  053%=      5-min Rain = 0
KCH1 250400Z 03002KT 17/08 A3006 RMK A01 T01710075  RH  053%=      5-min Rain = 0
KCH1 250401Z 08002KT 17/07 A3006 RMK A01 T01700074  RH  053%=      5-min Rain = 0
KCH1 250402Z 10002KT 17/08 A3006 RMK A01 T01700075  RH  053%=      5-min Rain = 0
KCH1 250403Z 11001KT 17/07 A3006 RMK A01 T01700074  RH  053%=      5-min Rain = 0
KCH1 250404Z 13001KT 17/08 A3006 RMK A01 T01700075  RH  053%=      5-min Rain = 0
KCH1 250405Z 09001KT 17/07 A3006 RMK A01 T01690074  RH  054%=      5-min Rain = 0
KCH1 250406Z 07001KT 17/08 A3006 RMK A01 T01690075  RH  054%=      5-min Rain = 0
KCH1 250407Z 06001KT 17/07 A3006 RMK A01 T01680074  RH  054%=      5-min Rain = 0
KCH1 250408Z 03001KT 17/07 A3006 RMK A01 T01690074  RH  054%=      5-min Rain = 0
KCH1 250409Z 01002KT 17/07 A3006 RMK A01 T01680074  RH  054%=      5-min Rain = 0
KCH1 250410Z 02002KT 17/08 A3006 RMK A01 T01690075  RH  054%=      5-min Rain = 0
KCH1 250411Z 02002KT 17/08 A3006 RMK A01 T01690075  RH  054%=      5-min Rain = 0
KCH1 250412Z 01001KT 17/08 A3006 RMK A01 T01680075  RH  054%=      5-min Rain = 0
KCH1 250413Z 00001KT 17/08 A3006 RMK A01 T01670075  RH  054%=      5-min Rain = 0
KCH1 250414Z 02001KT 17/08 A3006 RMK A01 T01670075  RH  055%=      5-min Rain = 0
KCH1 250415Z 02000KT 17/08 A3006 RMK A01 T01660075  RH  055%=      5-min Rain = 0
KCH1 250416Z 04000KT 17/08 A3006 RMK A01 T01650075  RH  055%=      5-min Rain = 0
KCH1 250417Z 04000KT 17/08 A3006 RMK A01 T01650075  RH  055%=      5-min Rain = 0
KCH1 250418Z 02001KT 16/08 A3006 RMK A01 T01640075  RH  056%=      5-min Rain = 0
KCH1 250419Z 01002KT 16/08 A3006 RMK A01 T01640075  RH  056%=      5-min Rain = 0
KCH1 250420Z 01002KT 16/08 A3006 RMK A01 T01630075  RH  056%=      5-min Rain = 0
KCH1 250421Z 02004KT 16/08 A3006 RMK A01 T01630075  RH  056%=      5-min Rain = 0
KCH1 250422Z 03004KT 16/08 A3006 RMK A01 T01620075  RH  056%=      5-min Rain = 0
KCH1 250423Z 03005KT 16/08 A3006 RMK A01 T01620075  RH  056%=      5-min Rain = 0
KCH1 250424Z 03005KT 16/08 A3006 RMK A01 T01610075  RH  057%=      5-min Rain = 0
KCH1 250425Z 03005KT 16/08 A3006 RMK A01 T01600075  RH  057%=      5-min Rain = 0
KCH1 250426Z 03005KT 16/08 A3006 RMK A01 T01600075  RH  057%=      5-min Rain = 0
KCH1 250427Z 03005KT 16/08 A3006 RMK A01 T01590075  RH  057%=      5-min Rain = 0
KCH1 250428Z 03005KT 16/08 A3006 RMK A01 T01590075  RH  057%=      5-min Rain = 0
KCH1 250429Z 03005KT 16/08 A3006 RMK A01 T01590075  RH  057%=      5-min Rain = 0
KCH1 250430Z 03005KT 16/08 A3006 RMK A01 T01590075  RH  057%=      5-min Rain = 0
KCH1 250431Z 02004KT 16/08 A3006 RMK A01 T01590075  RH  057%=      5-min Rain = 0
KCH1 250432Z 02005KT 16/07 A3006 RMK A01 T01590074  RH  057%=      5-min Rain = 0
KCH1 250433Z 02005KT 16/07 A3006 RMK A01 T01600074  RH  057%=      5-min Rain = 0
KCH1 250434Z 02005KT 16/08 A3006 RMK A01 T01610075  RH  057%=      5-min Rain = 0
KCH1 250435Z 02005KT 16/08 A3006 RMK A01 T01610075  RH  057%=      5-min Rain = 0
KCH1 250436Z 02005KT 16/08 A3006 RMK A01 T01610075  RH  057%=      5-min Rain = 0
KCH1 250437Z 01005KT 16/08 A3006 RMK A01 T01610075  RH  057%=      5-min Rain = 0
KCH1 250438Z 01005KT 16/07 A3007 RMK A01 T01600074  RH  057%=      5-min Rain = 0
KCH1 250439Z 00006KT 16/07 A3007 RMK A01 T01600074  RH  057%=      5-min Rain = 0
KCH1 250440Z 00006KT 16/08 A3007 RMK A01 T01590075  RH  057%=      5-min Rain = 0
KCH1 250441Z 35006KT 16/08 A3007 RMK A01 T01590075  RH  057%=      5-min Rain = 0
KCH1 250442Z 35006KT 16/08 A3007 RMK A01 T01590075  RH  057%=      5-min Rain = 0
KCH1 250443Z 35005KT 16/08 A3007 RMK A01 T01600075  RH  057%=      5-min Rain = 0
KCH1 250444Z 34005KT 16/08 A3007 RMK A01 T01600075  RH  057%=      5-min Rain = 0
KCH1 250445Z 34004KT 16/08 A3007 RMK A01 T01600075  RH  057%=      5-min Rain = 0
KCH1 250446Z 35004KT 16/08 A3007 RMK A01 T01600075  RH  057%=      5-min Rain = 0
KCH1 250447Z 00004KT 16/08 A3007 RMK A01 T01600075  RH  057%=      5-min Rain = 0
KCH1 250448Z 00003KT 16/08 A3007 RMK A01 T01620075  RH  056%=      5-min Rain = 0
KCH1 250449Z 36002KT 16/08 A3007 RMK A01 T01640075  RH  056%=      5-min Rain = 0
KCH1 250450Z 02002KT 17/08 A3007 RMK A01 T01650075  RH  055%=      5-min Rain = 0
KCH1 250451Z 01002KT 17/08 A3007 RMK A01 T01650075  RH  055%=      5-min Rain = 0
KCH1 250452Z 03003KT 17/08 A3007 RMK A01 T01670075  RH  055%=      5-min Rain = 0
KCH1 250453Z 03003KT 17/08 A3007 RMK A01 T01680075  RH  054%=      5-min Rain = 0
KCH1 250454Z 01003KT 17/07 A3007 RMK A01 T01690074  RH  054%=      5-min Rain = 0
KCH1 250455Z 03004KT 17/08 A3007 RMK A01 T01690075  RH  054%=      5-min Rain = 0
KCH1 250456Z 03002KT 17/07 A3007 RMK A01 T01690074  RH  054%=      5-min Rain = 0
KCH1 250457Z 06001KT 17/07 A3007 RMK A01 T01690074  RH  054%=      5-min Rain = 0
KCH1 250458Z 02001KT 17/07 A3008 RMK A01 T01690074  RH  054%=      5-min Rain = 0
KCH1 250459Z 04002KT 17/07 A3008 RMK A01 T01690074  RH  054%=      5-min Rain = 0

Page generated in 0.0384 seconds.